Home > Products > Valid Products > TAF

000
FTUS41 KRNK 280358 AAB
TAFBLF
TAF AMD
KBLF 280358Z 2804/2824 32010G20KT 4SM -SN OVC012
      TEMPO 2804/2807 2SM -SN
     FM280800 32010G20KT P6SM OVC025
     FM281400 31012G22KT P6SM BKN030
     FM281700 31011G21KT P6SM SCT030=



000
FTUS41 KRNK 280304 AAA
TAFDAN
TAF AMD
KDAN 280304Z 2803/2824 VRB04KT P6SM SCT015 OVC050
      TEMPO 2803/2805 BKN015
     FM280600 33007KT P6SM OVC050
     FM280900 33007KT P6SM FEW050
     FM281400 32011G21KT P6SM SCT250=



000
FTUS41 KRNK 280304 AAA
TAFDAN
TAF AMD
KDAN 280304Z 2803/2824 VRB04KT P6SM SCT015 OVC050
      TEMPO 2803/2805 BKN015
     FM280600 33007KT P6SM OVC050
     FM280900 33007KT P6SM FEW050
     FM281400 32011G21KT P6SM SCT250=



000
FTUS41 KRNK 280304 AAA
TAFDAN
TAF AMD
KDAN 280304Z 2803/2824 VRB04KT P6SM SCT015 OVC050
      TEMPO 2803/2805 BKN015
     FM280600 33007KT P6SM OVC050
     FM280900 33007KT P6SM FEW050
     FM281400 32011G21KT P6SM SCT250=



000
FTUS41 KRNK 280304 AAA
TAFDAN
TAF AMD
KDAN 280304Z 2803/2824 VRB04KT P6SM SCT015 OVC050
      TEMPO 2803/2805 BKN015
     FM280600 33007KT P6SM OVC050
     FM280900 33007KT P6SM FEW050
     FM281400 32011G21KT P6SM SCT250=



000
FTUS41 KRNK 280304 AAA
TAFLYH
TAF AMD
KLYH 280304Z 2803/2824 VRB04KT P6SM SCT012 OVC050
     FM280500 28007KT P6SM OVC050
     FM280800 29007KT P6SM FEW050
     FM281400 29008G18KT P6SM SKC=



000
FTUS41 KRNK 280304 AAA
TAFLYH
TAF AMD
KLYH 280304Z 2803/2824 VRB04KT P6SM SCT012 OVC050
     FM280500 28007KT P6SM OVC050
     FM280800 29007KT P6SM FEW050
     FM281400 29008G18KT P6SM SKC=



000
FTUS41 KRNK 280304 AAA
TAFLYH
TAF AMD
KLYH 280304Z 2803/2824 VRB04KT P6SM SCT012 OVC050
     FM280500 28007KT P6SM OVC050
     FM280800 29007KT P6SM FEW050
     FM281400 29008G18KT P6SM SKC=



000
FTUS41 KRNK 280304 AAA
TAFLYH
TAF AMD
KLYH 280304Z 2803/2824 VRB04KT P6SM SCT012 OVC050
     FM280500 28007KT P6SM OVC050
     FM280800 29007KT P6SM FEW050
     FM281400 29008G18KT P6SM SKC=



000
FTUS41 KRNK 280125 AAA
TAFBLF
TAF AMD
KBLF 280125Z 2801/2824 32011G21KT 4SM -SN SCT012 OVC030
      TEMPO 2801/2805 2SM -SN BR OVC012
     FM280700 32010G20KT P6SM OVC025
     FM281400 31012G22KT P6SM BKN030
     FM281700 31011G21KT P6SM SCT030=



000
FTUS41 KRNK 280125 AAA
TAFBLF
TAF AMD
KBLF 280125Z 2801/2824 32011G21KT 4SM -SN SCT012 OVC030
      TEMPO 2801/2805 2SM -SN BR OVC012
     FM280700 32010G20KT P6SM OVC025
     FM281400 31012G22KT P6SM BKN030
     FM281700 31011G21KT P6SM SCT030=



000
FTUS41 KRNK 272337
TAFBLF
TAF
KBLF 272337Z 2800/2824 32011G21KT P6SM -SHSN OVC035
      TEMPO 2800/2804 5SM -SHSN OVC025
     FM280700 32010G20KT P6SM OVC025
     FM281400 31012G22KT P6SM BKN030
     FM281700 31011G21KT P6SM SCT030=



000
FTUS41 KRNK 272337
TAFDAN
TAF
KDAN 272337Z 2800/2824 VRB04KT P6SM -RA SCT008 OVC045
      TEMPO 2800/2803 BKN008
     FM280300 33008KT P6SM OVC050
     FM280900 33007KT P6SM FEW050
     FM281400 32011G21KT P6SM SCT250=



000
FTUS41 KRNK 272337
TAFLWB
TAF
KLWB 272337Z 2800/2824 32008G16KT P6SM OVC040
      TEMPO 2800/2804 P6SM -SHSN OVC035
     FM280700 31007KT P6SM BKN030
     FM281500 30010G20KT P6SM SCT035=



000
FTUS41 KRNK 272337
TAFROA
TAF
KROA 272337Z 2800/2824 32012G22KT P6SM OVC050
     FM280700 32010G20KT P6SM SCT045
     FM281300 32013G23KT P6SM SCT250=



000
FTUS41 KRNK 272337
TAFBLF
TAF
KBLF 272337Z 2800/2824 32011G21KT P6SM -SHSN OVC035
      TEMPO 2800/2804 5SM -SHSN OVC025
     FM280700 32010G20KT P6SM OVC025
     FM281400 31012G22KT P6SM BKN030
     FM281700 31011G21KT P6SM SCT030=



000
FTUS41 KRNK 272337
TAFLYH
TAF
KLYH 272337Z 2800/2824 VRB04KT P6SM SCT012 OVC050
      TEMPO 2800/2802 P6SM -RA BKN012
     FM280200 28007KT P6SM OVC050
     FM280800 29007KT P6SM FEW050
     FM281400 29008G18KT P6SM SKC=



000
FTUS41 KRNK 272337
TAFLWB
TAF
KLWB 272337Z 2800/2824 32008G16KT P6SM OVC040
      TEMPO 2800/2804 P6SM -SHSN OVC035
     FM280700 31007KT P6SM BKN030
     FM281500 30010G20KT P6SM SCT035=



000
FTUS41 KRNK 272337
TAFROA
TAF
KROA 272337Z 2800/2824 32012G22KT P6SM OVC050
     FM280700 32010G20KT P6SM SCT045
     FM281300 32013G23KT P6SM SCT250=



000
FTUS41 KRNK 272337
TAFDAN
TAF
KDAN 272337Z 2800/2824 VRB04KT P6SM -RA SCT008 OVC045
      TEMPO 2800/2803 BKN008
     FM280300 33008KT P6SM OVC050
     FM280900 33007KT P6SM FEW050
     FM281400 32011G21KT P6SM SCT250=



000
FTUS41 KRNK 272337
TAFLWB
TAF
KLWB 272337Z 2800/2824 32008G16KT P6SM OVC040
      TEMPO 2800/2804 P6SM -SHSN OVC035
     FM280700 31007KT P6SM BKN030
     FM281500 30010G20KT P6SM SCT035=



000
FTUS41 KRNK 272337
TAFROA
TAF
KROA 272337Z 2800/2824 32012G22KT P6SM OVC050
     FM280700 32010G20KT P6SM SCT045
     FM281300 32013G23KT P6SM SCT250=



000
FTUS41 KRNK 272337
TAFLYH
TAF
KLYH 272337Z 2800/2824 VRB04KT P6SM SCT012 OVC050
      TEMPO 2800/2802 P6SM -RA BKN012
     FM280200 28007KT P6SM OVC050
     FM280800 29007KT P6SM FEW050
     FM281400 29008G18KT P6SM SKC=



000
FTUS41 KRNK 272337
TAFDAN
TAF
KDAN 272337Z 2800/2824 VRB04KT P6SM -RA SCT008 OVC045
      TEMPO 2800/2803 BKN008
     FM280300 33008KT P6SM OVC050
     FM280900 33007KT P6SM FEW050
     FM281400 32011G21KT P6SM SCT250=



000
FTUS41 KRNK 272337
TAFLYH
TAF
KLYH 272337Z 2800/2824 VRB04KT P6SM SCT012 OVC050
      TEMPO 2800/2802 P6SM -RA BKN012
     FM280200 28007KT P6SM OVC050
     FM280800 29007KT P6SM FEW050
     FM281400 29008G18KT P6SM SKC=



000
FTUS41 KRNK 272337
TAFLYH
TAF
KLYH 272337Z 2800/2824 VRB04KT P6SM SCT012 OVC050
      TEMPO 2800/2802 P6SM -RA BKN012
     FM280200 28007KT P6SM OVC050
     FM280800 29007KT P6SM FEW050
     FM281400 29008G18KT P6SM SKC=



000
FTUS41 KRNK 272337
TAFROA
TAF
KROA 272337Z 2800/2824 32012G22KT P6SM OVC050
     FM280700 32010G20KT P6SM SCT045
     FM281300 32013G23KT P6SM SCT250=



000
FTUS41 KRNK 272337
TAFBLF
TAF
KBLF 272337Z 2800/2824 32011G21KT P6SM -SHSN OVC035
      TEMPO 2800/2804 5SM -SHSN OVC025
     FM280700 32010G20KT P6SM OVC025
     FM281400 31012G22KT P6SM BKN030
     FM281700 31011G21KT P6SM SCT030=



000
FTUS41 KRNK 272337
TAFDAN
TAF
KDAN 272337Z 2800/2824 VRB04KT P6SM -RA SCT008 OVC045
      TEMPO 2800/2803 BKN008
     FM280300 33008KT P6SM OVC050
     FM280900 33007KT P6SM FEW050
     FM281400 32011G21KT P6SM SCT250=



000
FTUS41 KRNK 272337
TAFLWB
TAF
KLWB 272337Z 2800/2824 32008G16KT P6SM OVC040
      TEMPO 2800/2804 P6SM -SHSN OVC035
     FM280700 31007KT P6SM BKN030
     FM281500 30010G20KT P6SM SCT035=



000
FTUS41 KRNK 272337
TAFBLF
TAF
KBLF 272337Z 2800/2824 32011G21KT P6SM -SHSN OVC035
      TEMPO 2800/2804 5SM -SHSN OVC025
     FM280700 32010G20KT P6SM OVC025
     FM281400 31012G22KT P6SM BKN030
     FM281700 31011G21KT P6SM SCT030=



000
FTUS41 KRNK 272238 AAC
TAFDAN
TAF AMD
KDAN 272238Z 2723/2818 36005KT P6SM -RA SCT009 OVC045
      TEMPO 2723/2803 BKN009
     FM280300 32008KT P6SM -RA OVC012
     FM280900 33007KT P6SM SCT050
     FM281500 32012G24KT P6SM SKC=



000
FTUS41 KRNK 272238 AAC
TAFDAN
TAF AMD
KDAN 272238Z 2723/2818 36005KT P6SM -RA SCT009 OVC045
      TEMPO 2723/2803 BKN009
     FM280300 32008KT P6SM -RA OVC012
     FM280900 33007KT P6SM SCT050
     FM281500 32012G24KT P6SM SKC=



000
FTUS41 KRNK 272005 AAB
TAFDAN
TAF AMD
KDAN 272005Z 2720/2818 02005KT P6SM SCT016 OVC035
     FM280300 32008KT P6SM BKN050
     FM280900 33007KT P6SM SCT050
     FM281500 32012G24KT P6SM SKC=



000
FTUS41 KRNK 272005 AAB
TAFDAN
TAF AMD
KDAN 272005Z 2720/2818 02005KT P6SM SCT016 OVC035
     FM280300 32008KT P6SM BKN050
     FM280900 33007KT P6SM SCT050
     FM281500 32012G24KT P6SM SKC=



000
FTUS41 KRNK 272005 AAB
TAFDAN
TAF AMD
KDAN 272005Z 2720/2818 02005KT P6SM SCT016 OVC035
     FM280300 32008KT P6SM BKN050
     FM280900 33007KT P6SM SCT050
     FM281500 32012G24KT P6SM SKC=



000
FTUS41 KRNK 272005 AAB
TAFDAN
TAF AMD
KDAN 272005Z 2720/2818 02005KT P6SM SCT016 OVC035
     FM280300 32008KT P6SM BKN050
     FM280900 33007KT P6SM SCT050
     FM281500 32012G24KT P6SM SKC=



000
FTUS41 KRNK 271949 AAC
TAFLYH
TAF AMD
KLYH 271949Z 2720/2818 00000KT P6SM -RA SCT010 OVC035
     FM272100 01008KT P6SM SCT015 OVC035
     FM272300 01004KT P6SM SCT018 BKN035
     FM280500 35004KT P6SM BKN050
     FM281400 29007G18KT P6SM SKC=



000
FTUS41 KRNK 271925 AAB
TAFLYH
TAF AMD
KLYH 271925Z 2719/2818 05004KT P6SM -RA BKN011 OVC022
     FM272100 01008KT P6SM -RA SCT015 OVC025
     FM272300 01004KT P6SM SCT018 OVC035
     FM280500 35004KT P6SM BKN050
     FM281400 29007G18KT P6SM SKC=



000
FTUS41 KRNK 271925 AAB
TAFLYH
TAF AMD
KLYH 271925Z 2719/2818 05004KT P6SM -RA BKN011 OVC022
     FM272100 01008KT P6SM -RA SCT015 OVC025
     FM272300 01004KT P6SM SCT018 OVC035
     FM280500 35004KT P6SM BKN050
     FM281400 29007G18KT P6SM SKC=



000
FTUS41 KRNK 271902 AAA
TAFLYH
TAF AMD
KLYH 271902Z 2719/2818 09007KT 6SM -RA SCT011 OVC015
     FM272000 01008KT P6SM -RA SCT015 OVC025
     FM272100 01004KT P6SM SCT018 OVC035
     FM280500 35004KT P6SM BKN050
     FM281400 29007G18KT P6SM SKC=



000
FTUS41 KRNK 271902 AAA
TAFLYH
TAF AMD
KLYH 271902Z 2719/2818 09007KT 6SM -RA SCT011 OVC015
     FM272000 01008KT P6SM -RA SCT015 OVC025
     FM272100 01004KT P6SM SCT018 OVC035
     FM280500 35004KT P6SM BKN050
     FM281400 29007G18KT P6SM SKC=



000
FTUS41 KRNK 271830 AAA
TAFBLF
TAF AMD
KBLF 271830Z 2719/2818 34007KT P6SM BKN025
     FM280300 32009G19KT 5SM -SHSN OVC025
     FM281300 31011G22KT P6SM SCT025 OVC050=



000
FTUS41 KRNK 271829 AAA
TAFLWB
TAF AMD
KLWB 271829Z 2718/2818 32006KT P6SM SCT015 OVC035
     FM272000 31007KT P6SM OVC040
     FM280400 33007KT P6SM -SHSN OVC035
     FM281300 32009G16KT P6SM BKN050=



000
FTUS41 KRNK 271829 AAA
TAFLWB
TAF AMD
KLWB 271829Z 2718/2818 32006KT P6SM SCT015 OVC035
     FM272000 31007KT P6SM OVC040
     FM280400 33007KT P6SM -SHSN OVC035
     FM281300 32009G16KT P6SM BKN050=



000
FTUS41 KRNK 271828 AAA
TAFDAN
TAF AMD
KDAN 271828Z 2718/2818 02005KT P6SM SCT016 OVC025
     FM280300 32008KT P6SM BKN050
     FM280900 33007KT P6SM SCT050
     FM281500 32012G24KT P6SM SKC=



000
FTUS41 KRNK 271828 AAA
TAFDAN
TAF AMD
KDAN 271828Z 2718/2818 02005KT P6SM SCT016 OVC025
     FM280300 32008KT P6SM BKN050
     FM280900 33007KT P6SM SCT050
     FM281500 32012G24KT P6SM SKC=



000
FTUS41 KRNK 271748 CCA
TAFBLF
TAF COR
KBLF 271748Z 2718/2818 33007G14KT P6SM SCT020 BKN040
     FM280300 32009G19KT 5SM -SHSN OVC025
     FM281300 31011G22KT P6SM SCT025 OVC050=



000
FTUS41 KRNK 271748 CCA
TAFBLF
TAF COR
KBLF 271748Z 2718/2818 33007G14KT P6SM SCT020 BKN040
     FM280300 32009G19KT 5SM -SHSN OVC025
     FM281300 31011G22KT P6SM SCT025 OVC050=



000
FTUS41 KRNK 271748 CCA
TAFBLF
TAF COR
KBLF 271748Z 2718/2818 33007G14KT P6SM SCT020 BKN040
     FM280300 32009G19KT 5SM -SHSN OVC025
     FM281300 31011G22KT P6SM SCT025 OVC050=



000
FTUS41 KRNK 271748 CCA
TAFBLF
TAF COR
KBLF 271748Z 2718/2818 33007G14KT P6SM SCT020 BKN040
     FM280300 32009G19KT 5SM -SHSN OVC025
     FM281300 31011G22KT P6SM SCT025 OVC050=



000
FTUS41 KRNK 271727
TAFBLF
TAF
KBLF 271727Z 2718/2818 33007G14KT P6SM -SHRA OVC019
     FM272100 32008KT P6SM SCT020 BKN040
     FM280300 32009G19KT 5SM -SHSN OVC025
     FM281300 31011G22KT P6SM SCT025 OVC050=



000
FTUS41 KRNK 271727
TAFLWB
TAF
KLWB 271727Z 2718/2818 32006KT P6SM SCT015 OVC025
     FM272000 31007KT P6SM OVC040
     FM280400 33007KT P6SM -SHSN OVC035
     FM281300 32009G16KT P6SM BKN050=



000
FTUS41 KRNK 271727
TAFBLF
TAF
KBLF 271727Z 2718/2818 33007G14KT P6SM -SHRA OVC019
     FM272100 32008KT P6SM SCT020 BKN040
     FM280300 32009G19KT 5SM -SHSN OVC025
     FM281300 31011G22KT P6SM SCT025 OVC050=



000
FTUS41 KRNK 271727
TAFDAN
TAF
KDAN 271727Z 2718/2818 03010KT 6SM -RA BR SCT008 OVC016
     FM272000 02005KT P6SM SCT016 OVC025
     FM280300 32008KT P6SM BKN050
     FM280900 33007KT P6SM SCT050
     FM281500 32012G24KT P6SM SKC=



000
FTUS41 KRNK 271727
TAFDAN
TAF
KDAN 271727Z 2718/2818 03010KT 6SM -RA BR SCT008 OVC016
     FM272000 02005KT P6SM SCT016 OVC025
     FM280300 32008KT P6SM BKN050
     FM280900 33007KT P6SM SCT050
     FM281500 32012G24KT P6SM SKC=



000
FTUS41 KRNK 271727
TAFROA
TAF
KROA 271727Z 2718/2818 35006KT P6SM -RA SCT015 OVC035
     FM271900 32008KT P6SM SCT025 OVC050
     FM280200 32012G20KT P6SM BKN050
     FM280800 21011KT P6SM SCT060
     FM281300 31013G23KT P6SM SCT100 BKN250=



000
FTUS41 KRNK 271727
TAFLWB
TAF
KLWB 271727Z 2718/2818 32006KT P6SM SCT015 OVC025
     FM272000 31007KT P6SM OVC040
     FM280400 33007KT P6SM -SHSN OVC035
     FM281300 32009G16KT P6SM BKN050=



000
FTUS41 KRNK 271727
TAFLYH
TAF
KLYH 271727Z 2718/2818 01008KT P6SM -RA SCT015 OVC025
     FM272100 01004KT P6SM SCT018 OVC035
     FM280500 35004KT P6SM BKN050
     FM281400 29007G18KT P6SM SKC=



000
FTUS41 KRNK 271727
TAFROA
TAF
KROA 271727Z 2718/2818 35006KT P6SM -RA SCT015 OVC035
     FM271900 32008KT P6SM SCT025 OVC050
     FM280200 32012G20KT P6SM BKN050
     FM280800 21011KT P6SM SCT060
     FM281300 31013G23KT P6SM SCT100 BKN250=



000
FTUS41 KRNK 271727
TAFLYH
TAF
KLYH 271727Z 2718/2818 01008KT P6SM -RA SCT015 OVC025
     FM272100 01004KT P6SM SCT018 OVC035
     FM280500 35004KT P6SM BKN050
     FM281400 29007G18KT P6SM SKC=



000
FTUS41 KRNK 271727
TAFLYH
TAF
KLYH 271727Z 2718/2818 01008KT P6SM -RA SCT015 OVC025
     FM272100 01004KT P6SM SCT018 OVC035
     FM280500 35004KT P6SM BKN050
     FM281400 29007G18KT P6SM SKC=



000
FTUS41 KRNK 271727
TAFLWB
TAF
KLWB 271727Z 2718/2818 32006KT P6SM SCT015 OVC025
     FM272000 31007KT P6SM OVC040
     FM280400 33007KT P6SM -SHSN OVC035
     FM281300 32009G16KT P6SM BKN050=



000
FTUS41 KRNK 271727
TAFDAN
TAF
KDAN 271727Z 2718/2818 03010KT 6SM -RA BR SCT008 OVC016
     FM272000 02005KT P6SM SCT016 OVC025
     FM280300 32008KT P6SM BKN050
     FM280900 33007KT P6SM SCT050
     FM281500 32012G24KT P6SM SKC=



000
FTUS41 KRNK 271727
TAFBLF
TAF
KBLF 271727Z 2718/2818 33007G14KT P6SM -SHRA OVC019
     FM272100 32008KT P6SM SCT020 BKN040
     FM280300 32009G19KT 5SM -SHSN OVC025
     FM281300 31011G22KT P6SM SCT025 OVC050=



000
FTUS41 KRNK 271727
TAFBLF
TAF
KBLF 271727Z 2718/2818 33007G14KT P6SM -SHRA OVC019
     FM272100 32008KT P6SM SCT020 BKN040
     FM280300 32009G19KT 5SM -SHSN OVC025
     FM281300 31011G22KT P6SM SCT025 OVC050=



000
FTUS41 KRNK 271727
TAFROA
TAF
KROA 271727Z 2718/2818 35006KT P6SM -RA SCT015 OVC035
     FM271900 32008KT P6SM SCT025 OVC050
     FM280200 32012G20KT P6SM BKN050
     FM280800 21011KT P6SM SCT060
     FM281300 31013G23KT P6SM SCT100 BKN250=



000
FTUS41 KRNK 271727
TAFLYH
TAF
KLYH 271727Z 2718/2818 01008KT P6SM -RA SCT015 OVC025
     FM272100 01004KT P6SM SCT018 OVC035
     FM280500 35004KT P6SM BKN050
     FM281400 29007G18KT P6SM SKC=



000
FTUS41 KRNK 271727
TAFDAN
TAF
KDAN 271727Z 2718/2818 03010KT 6SM -RA BR SCT008 OVC016
     FM272000 02005KT P6SM SCT016 OVC025
     FM280300 32008KT P6SM BKN050
     FM280900 33007KT P6SM SCT050
     FM281500 32012G24KT P6SM SKC=



000
FTUS41 KRNK 271727
TAFLWB
TAF
KLWB 271727Z 2718/2818 32006KT P6SM SCT015 OVC025
     FM272000 31007KT P6SM OVC040
     FM280400 33007KT P6SM -SHSN OVC035
     FM281300 32009G16KT P6SM BKN050=



000
FTUS41 KRNK 271727
TAFROA
TAF
KROA 271727Z 2718/2818 35006KT P6SM -RA SCT015 OVC035
     FM271900 32008KT P6SM SCT025 OVC050
     FM280200 32012G20KT P6SM BKN050
     FM280800 21011KT P6SM SCT060
     FM281300 31013G23KT P6SM SCT100 BKN250=



000
FTUS41 KRNK 271705 AAB
TAFLYH
TAF AMD
KLYH 271705Z 2717/2812 VRB04KT P6SM -RA SCT016 BKN024 OVC035
     FM272100 01004KT P6SM OVC035
     FM280500 35004KT P6SM BKN050=



000
FTUS41 KRNK 271705 AAB
TAFLYH
TAF AMD
KLYH 271705Z 2717/2812 VRB04KT P6SM -RA SCT016 BKN024 OVC035
     FM272100 01004KT P6SM OVC035
     FM280500 35004KT P6SM BKN050=



000
FTUS41 KRNK 271705 AAB
TAFLYH
TAF AMD
KLYH 271705Z 2717/2812 VRB04KT P6SM -RA SCT016 BKN024 OVC035
     FM272100 01004KT P6SM OVC035
     FM280500 35004KT P6SM BKN050=



000
FTUS41 KRNK 271705 AAB
TAFLYH
TAF AMD
KLYH 271705Z 2717/2812 VRB04KT P6SM -RA SCT016 BKN024 OVC035
     FM272100 01004KT P6SM OVC035
     FM280500 35004KT P6SM BKN050=



000
FTUS41 KRNK 271704 AAC
TAFDAN
TAF AMD
KDAN 271704Z 2717/2812 05008KT P6SM -RA BKN013 OVC050
     FM272000 02005KT P6SM OVC025
     FM280300 32008KT P6SM BKN050
     FM280900 33007KT P6SM SCT050=



000
FTUS41 KRNK 271704 AAC
TAFDAN
TAF AMD
KDAN 271704Z 2717/2812 05008KT P6SM -RA BKN013 OVC050
     FM272000 02005KT P6SM OVC025
     FM280300 32008KT P6SM BKN050
     FM280900 33007KT P6SM SCT050=



000
FTUS41 KRNK 271704 AAC
TAFDAN
TAF AMD
KDAN 271704Z 2717/2812 05008KT P6SM -RA BKN013 OVC050
     FM272000 02005KT P6SM OVC025
     FM280300 32008KT P6SM BKN050
     FM280900 33007KT P6SM SCT050=



000
FTUS41 KRNK 271704 AAC
TAFDAN
TAF AMD
KDAN 271704Z 2717/2812 05008KT P6SM -RA BKN013 OVC050
     FM272000 02005KT P6SM OVC025
     FM280300 32008KT P6SM BKN050
     FM280900 33007KT P6SM SCT050=



000
FTUS41 KRNK 271521 AAB
TAFDAN
TAF AMD
KDAN 271521Z 2715/2812 02010KT P6SM -RA SCT022 OVC040
     FM272000 02005KT P6SM OVC025
     FM280300 32008KT P6SM BKN050
     FM280900 33007KT P6SM SCT050=



000
FTUS41 KRNK 271521 AAB
TAFDAN
TAF AMD
KDAN 271521Z 2715/2812 02010KT P6SM -RA SCT022 OVC040
     FM272000 02005KT P6SM OVC025
     FM280300 32008KT P6SM BKN050
     FM280900 33007KT P6SM SCT050=



000
FTUS41 KRNK 271521 AAA
TAFLYH
TAF AMD
KLYH 271521Z 2715/2812 VRB03KT P6SM -RA BKN008 OVC021
     FM272100 01004KT P6SM OVC035
     FM280500 35004KT P6SM BKN050=



000
FTUS41 KRNK 271521 AAA
TAFLYH
TAF AMD
KLYH 271521Z 2715/2812 VRB03KT P6SM -RA BKN008 OVC021
     FM272100 01004KT P6SM OVC035
     FM280500 35004KT P6SM BKN050=



000
FTUS41 KRNK 271405 AAC
TAFBLF
TAF AMD
KBLF 271405Z 2714/2812 35007KT P6SM -RA SCT003 OVC008
     FM271700 33007KT P6SM -SHRA OVC018
     FM272100 32008KT P6SM SCT025 BKN040
     FM280300 32009G19KT P6SM -SHSN OVC025=



000
FTUS41 KRNK 271340 AAB
TAFBLF
TAF AMD
KBLF 271340Z 2714/2812 34006KT 3SM -RASN BR BKN002 OVC008
     FM271700 33007KT P6SM -SHRA OVC018
     FM272100 32008KT P6SM SCT025 BKN040
     FM280300 32009G19KT P6SM -SHSN OVC025=



000
FTUS41 KRNK 271340 AAB
TAFBLF
TAF AMD
KBLF 271340Z 2714/2812 34006KT 3SM -RASN BR BKN002 OVC008
     FM271700 33007KT P6SM -SHRA OVC018
     FM272100 32008KT P6SM SCT025 BKN040
     FM280300 32009G19KT P6SM -SHSN OVC025=



000
FTUS41 KRNK 271254 AAA
TAFDAN
TAF AMD
KDAN 271254Z 2713/2812 03010KT 3SM -RA BR SCT008 OVC018
     FM272000 02005KT P6SM OVC025
     FM280300 32008KT P6SM BKN050
     FM280900 33007KT P6SM SCT050=



000
FTUS41 KRNK 271254 AAA
TAFDAN
TAF AMD
KDAN 271254Z 2713/2812 03010KT 3SM -RA BR SCT008 OVC018
     FM272000 02005KT P6SM OVC025
     FM280300 32008KT P6SM BKN050
     FM280900 33007KT P6SM SCT050=



000
FTUS41 KRNK 271253 AAA
TAFBLF
TAF AMD
KBLF 271253Z 2713/2812 35007KT 3/4SM -RASN OVC004
     FM271700 33007KT P6SM -SHRA OVC018
     FM272100 32008KT P6SM SCT025 BKN040
     FM280300 32009G19KT P6SM -SHSN OVC025=



000
FTUS41 KRNK 271253 AAA
TAFBLF
TAF AMD
KBLF 271253Z 2713/2812 35007KT 3/4SM -RASN OVC004
     FM271700 33007KT P6SM -SHRA OVC018
     FM272100 32008KT P6SM SCT025 BKN040
     FM280300 32009G19KT P6SM -SHSN OVC025=



000
FTUS41 KRNK 271123
TAFBLF
TAF
KBLF 271123Z 2712/2812 35007KT P6SM -RASN OVC004
     FM271700 33007KT P6SM -SHRA OVC018
     FM272100 32008KT P6SM SCT025 BKN040
     FM280300 32009G19KT P6SM -SHSN OVC025=



000
FTUS41 KRNK 271123
TAFROA
TAF
KROA 271123Z 2712/2812 35006KT P6SM -SHRA OVC045
      TEMPO 2712/2714 5SM -RA OVC025
     FM271900 32008KT P6SM SCT025 OVC050
     FM280200 32012G20KT P6SM BKN050
     FM280800 21011KT P6SM SCT060=



000
FTUS41 KRNK 271123
TAFDAN
TAF
KDAN 271123Z 2712/2812 35008KT P6SM -SHRA OVC015
     FM272000 02005KT P6SM OVC025
     FM280300 32008KT P6SM BKN050
     FM280900 33007KT P6SM SCT050=



000
FTUS41 KRNK 271123
TAFLYH
TAF
KLYH 271123Z 2712/2812 01008KT P6SM -SHRA OVC022
      TEMPO 2712/2714 4SM -SHRA OVC012
     FM272100 01004KT P6SM OVC035
     FM280500 35004KT P6SM BKN050=



000
FTUS41 KRNK 271123
TAFLWB
TAF
KLWB 271123Z 2712/2812 32004KT P6SM -RASN SCT007 OVC018
     FM271700 32006KT P6SM SCT015 OVC025
     FM272000 31007KT P6SM OVC040
     FM280400 33007KT P6SM -SHSN OVC035=



000
FTUS41 KRNK 271123
TAFLYH
TAF
KLYH 271123Z 2712/2812 01008KT P6SM -SHRA OVC022
      TEMPO 2712/2714 4SM -SHRA OVC012
     FM272100 01004KT P6SM OVC035
     FM280500 35004KT P6SM BKN050=



000
FTUS41 KRNK 271123
TAFBLF
TAF
KBLF 271123Z 2712/2812 35007KT P6SM -RASN OVC004
     FM271700 33007KT P6SM -SHRA OVC018
     FM272100 32008KT P6SM SCT025 BKN040
     FM280300 32009G19KT P6SM -SHSN OVC025=



000
FTUS41 KRNK 271123
TAFROA
TAF
KROA 271123Z 2712/2812 35006KT P6SM -SHRA OVC045
      TEMPO 2712/2714 5SM -RA OVC025
     FM271900 32008KT P6SM SCT025 OVC050
     FM280200 32012G20KT P6SM BKN050
     FM280800 21011KT P6SM SCT060=



000
FTUS41 KRNK 271123
TAFLWB
TAF
KLWB 271123Z 2712/2812 32004KT P6SM -RASN SCT007 OVC018
     FM271700 32006KT P6SM SCT015 OVC025
     FM272000 31007KT P6SM OVC040
     FM280400 33007KT P6SM -SHSN OVC035=



000
FTUS41 KRNK 271123
TAFDAN
TAF
KDAN 271123Z 2712/2812 35008KT P6SM -SHRA OVC015
     FM272000 02005KT P6SM OVC025
     FM280300 32008KT P6SM BKN050
     FM280900 33007KT P6SM SCT050=



000
FTUS41 KRNK 270936 AAD
TAFLYH
TAF AMD
KLYH 270936Z 2710/2806 01010KT 4SM -SHRA OVC012
      TEMPO 2710/2713 6SM -SHRA OVC022
     FM271500 02004KT 5SM -RA BR OVC025
     FM272000 36004KT P6SM OVC040=



000
FTUS41 KRNK 270936 AAD
TAFLYH
TAF AMD
KLYH 270936Z 2710/2806 01010KT 4SM -SHRA OVC012
      TEMPO 2710/2713 6SM -SHRA OVC022
     FM271500 02004KT 5SM -RA BR OVC025
     FM272000 36004KT P6SM OVC040=



000
FTUS41 KRNK 270915 AAB
TAFLWB
TAF AMD
KLWB 270915Z 2709/2806 30004KT 6SM -RASN SCT005 OVC025
     FM271100 32004KT P6SM -RASN SCT007 OVC015
     FM271500 32005KT P6SM SCT015 OVC025
     FM272000 31007KT P6SM OVC040=



000
FTUS41 KRNK 270915 AAB
TAFLWB
TAF AMD
KLWB 270915Z 2709/2806 30004KT 6SM -RASN SCT005 OVC025
     FM271100 32004KT P6SM -RASN SCT007 OVC015
     FM271500 32005KT P6SM SCT015 OVC025
     FM272000 31007KT P6SM OVC040=



000
FTUS41 KRNK 270914 AAC
TAFLYH
TAF AMD
KLYH 270914Z 2709/2806 01010KT 5SM -SHRA OVC025
      TEMPO 2711/2713 4SM -SHRA OVC018
     FM271500 02004KT 5SM -RA BR OVC025
     FM272000 36004KT P6SM OVC040=



000
FTUS41 KRNK 270914 AAC
TAFLYH
TAF AMD
KLYH 270914Z 2709/2806 01010KT 5SM -SHRA OVC025
      TEMPO 2711/2713 4SM -SHRA OVC018
     FM271500 02004KT 5SM -RA BR OVC025
     FM272000 36004KT P6SM OVC040=



000
FTUS41 KRNK 270914 AAB
TAFBLF
TAF AMD
KBLF 270914Z 2709/2806 31005KT 1/4SM FG OVC002
      TEMPO 2710/2712 2SM -SN BR OVC005
     FM271500 33007KT P6SM -SHRA OVC022
     FM272100 32008G18KT P6SM SCT025 BKN040=



000
FTUS41 KRNK 270914 AAB
TAFBLF
TAF AMD
KBLF 270914Z 2709/2806 31005KT 1/4SM FG OVC002
      TEMPO 2710/2712 2SM -SN BR OVC005
     FM271500 33007KT P6SM -SHRA OVC022
     FM272100 32008G18KT P6SM SCT025 BKN040=



000
FTUS41 KRNK 270802 AAB
TAFROA
TAF AMD
KROA 270802Z 2708/2806 31009KT P6SM -SHRA OVC050
     FM271000 30008KT 5SM -SHRA OVC015
     FM271300 32008KT 6SM -RA OVC025
     FM271900 30009KT P6SM SCT025 BKN050
     FM280200 31012G20KT P6SM SCT050=



000
FTUS41 KRNK 270802 AAB
TAFROA
TAF AMD
KROA 270802Z 2708/2806 31009KT P6SM -SHRA OVC050
     FM271000 30008KT 5SM -SHRA OVC015
     FM271300 32008KT 6SM -RA OVC025
     FM271900 30009KT P6SM SCT025 BKN050
     FM280200 31012G20KT P6SM SCT050=



000
FTUS41 KRNK 270802 AAB
TAFROA
TAF AMD
KROA 270802Z 2708/2806 31009KT P6SM -SHRA OVC050
     FM271000 30008KT 5SM -SHRA OVC015
     FM271300 32008KT 6SM -RA OVC025
     FM271900 30009KT P6SM SCT025 BKN050
     FM280200 31012G20KT P6SM SCT050=



000
FTUS41 KRNK 270801 AAA
TAFDAN
TAF AMD
KDAN 270801Z 2708/2806 32010G20KT P6SM OVC040
     FM271000 35010KT 5SM -SHRA OVC022
     FM271600 02007KT P6SM -RA OVC015
     FM272000 02005KT P6SM OVC025
     FM280300 32008KT P6SM BKN050=



000
FTUS41 KRNK 270801 AAA
TAFDAN
TAF AMD
KDAN 270801Z 2708/2806 32010G20KT P6SM OVC040
     FM271000 35010KT 5SM -SHRA OVC022
     FM271600 02007KT P6SM -RA OVC015
     FM272000 02005KT P6SM OVC025
     FM280300 32008KT P6SM BKN050=



000
FTUS41 KRNK 270800 AAB
TAFLYH
TAF AMD
KLYH 270800Z 2708/2806 01010KT P6SM -SHRA OVC035
      TEMPO 2711/2713 4SM -SHRA OVC018
     FM271500 02004KT 5SM -RA BR OVC025
     FM272000 36004KT P6SM OVC040=



000
FTUS41 KRNK 270800 AAB
TAFLYH
TAF AMD
KLYH 270800Z 2708/2806 01010KT P6SM -SHRA OVC035
      TEMPO 2711/2713 4SM -SHRA OVC018
     FM271500 02004KT 5SM -RA BR OVC025
     FM272000 36004KT P6SM OVC040=



000
FTUS41 KRNK 270800 AAB
TAFLYH
TAF AMD
KLYH 270800Z 2708/2806 01010KT P6SM -SHRA OVC035
      TEMPO 2711/2713 4SM -SHRA OVC018
     FM271500 02004KT 5SM -RA BR OVC025
     FM272000 36004KT P6SM OVC040=



000
FTUS41 KRNK 270800 AAB
TAFLYH
TAF AMD
KLYH 270800Z 2708/2806 01010KT P6SM -SHRA OVC035
      TEMPO 2711/2713 4SM -SHRA OVC018
     FM271500 02004KT 5SM -RA BR OVC025
     FM272000 36004KT P6SM OVC040=



000
FTUS41 KRNK 270603 AAA
TAFLYH
TAF AMD
KLYH 270603Z 2706/2806 01008KT P6SM -SHRA OVC018
      TEMPO 2711/2713 4SM -SHRA OVC008
     FM271500 02004KT 5SM -RA BR OVC025
     FM272000 36004KT P6SM OVC040=



000
FTUS41 KRNK 270603 AAA
TAFLYH
TAF AMD
KLYH 270603Z 2706/2806 01008KT P6SM -SHRA OVC018
      TEMPO 2711/2713 4SM -SHRA OVC008
     FM271500 02004KT 5SM -RA BR OVC025
     FM272000 36004KT P6SM OVC040=



000
FTUS41 KRNK 270603 AAA
TAFLYH
TAF AMD
KLYH 270603Z 2706/2806 01008KT P6SM -SHRA OVC018
      TEMPO 2711/2713 4SM -SHRA OVC008
     FM271500 02004KT 5SM -RA BR OVC025
     FM272000 36004KT P6SM OVC040=



000
FTUS41 KRNK 270603 AAA
TAFLYH
TAF AMD
KLYH 270603Z 2706/2806 01008KT P6SM -SHRA OVC018
      TEMPO 2711/2713 4SM -SHRA OVC008
     FM271500 02004KT 5SM -RA BR OVC025
     FM272000 36004KT P6SM OVC040=



000
FTUS41 KRNK 270602 AAA
TAFLWB
TAF AMD
KLWB 270602Z 2706/2806 30007KT 6SM -RA SCT005 OVC045
      TEMPO 2706/2709 4SM -RASN OVC025
     FM271100 32004KT P6SM -RASN SCT007 OVC015
     FM271500 32005KT P6SM SCT015 OVC025
     FM272000 31007KT P6SM OVC040=



000
FTUS41 KRNK 270602 AAA
TAFLWB
TAF AMD
KLWB 270602Z 2706/2806 30007KT 6SM -RA SCT005 OVC045
      TEMPO 2706/2709 4SM -RASN OVC025
     FM271100 32004KT P6SM -RASN SCT007 OVC015
     FM271500 32005KT P6SM SCT015 OVC025
     FM272000 31007KT P6SM OVC040=



000
FTUS41 KRNK 270602 AAA
TAFLWB
TAF AMD
KLWB 270602Z 2706/2806 30007KT 6SM -RA SCT005 OVC045
      TEMPO 2706/2709 4SM -RASN OVC025
     FM271100 32004KT P6SM -RASN SCT007 OVC015
     FM271500 32005KT P6SM SCT015 OVC025
     FM272000 31007KT P6SM OVC040=



000
FTUS41 KRNK 270602 AAA
TAFLWB
TAF AMD
KLWB 270602Z 2706/2806 30007KT 6SM -RA SCT005 OVC045
      TEMPO 2706/2709 4SM -RASN OVC025
     FM271100 32004KT P6SM -RASN SCT007 OVC015
     FM271500 32005KT P6SM SCT015 OVC025
     FM272000 31007KT P6SM OVC040=



000
FTUS41 KRNK 270601 AAA
TAFROA
TAF AMD
KROA 270601Z 2706/2806 30009KT P6SM -SHRA OVC025
     FM270900 30008KT 5SM -SHRA OVC015
     FM271300 32008KT 6SM -RA OVC025
     FM271900 30009KT P6SM SCT025 BKN050
     FM280200 31012G20KT P6SM SCT050=



000
FTUS41 KRNK 270601 AAA
TAFROA
TAF AMD
KROA 270601Z 2706/2806 30009KT P6SM -SHRA OVC025
     FM270900 30008KT 5SM -SHRA OVC015
     FM271300 32008KT 6SM -RA OVC025
     FM271900 30009KT P6SM SCT025 BKN050
     FM280200 31012G20KT P6SM SCT050=



000
FTUS41 KRNK 270601 AAA
TAFROA
TAF AMD
KROA 270601Z 2706/2806 30009KT P6SM -SHRA OVC025
     FM270900 30008KT 5SM -SHRA OVC015
     FM271300 32008KT 6SM -RA OVC025
     FM271900 30009KT P6SM SCT025 BKN050
     FM280200 31012G20KT P6SM SCT050=



000
FTUS41 KRNK 270601 AAA
TAFROA
TAF AMD
KROA 270601Z 2706/2806 30009KT P6SM -SHRA OVC025
     FM270900 30008KT 5SM -SHRA OVC015
     FM271300 32008KT 6SM -RA OVC025
     FM271900 30009KT P6SM SCT025 BKN050
     FM280200 31012G20KT P6SM SCT050=



000
FTUS41 KRNK 270600 AAA
TAFBLF
TAF AMD
KBLF 270600Z 2706/2806 31006KT 6SM -RASN OVC005
     FM270900 32008KT 5SM -SHSN OVC005
     FM271500 33007KT P6SM -SHRA OVC022
     FM272100 32008G18KT P6SM SCT025 BKN040=



000
FTUS41 KRNK 270600 AAA
TAFBLF
TAF AMD
KBLF 270600Z 2706/2806 31006KT 6SM -RASN OVC005
     FM270900 32008KT 5SM -SHSN OVC005
     FM271500 33007KT P6SM -SHRA OVC022
     FM272100 32008G18KT P6SM SCT025 BKN040=



000
FTUS41 KRNK 270600 AAA
TAFBLF
TAF AMD
KBLF 270600Z 2706/2806 31006KT 6SM -RASN OVC005
     FM270900 32008KT 5SM -SHSN OVC005
     FM271500 33007KT P6SM -SHRA OVC022
     FM272100 32008G18KT P6SM SCT025 BKN040=



000
FTUS41 KRNK 270600 AAA
TAFBLF
TAF AMD
KBLF 270600Z 2706/2806 31006KT 6SM -RASN OVC005
     FM270900 32008KT 5SM -SHSN OVC005
     FM271500 33007KT P6SM -SHRA OVC022
     FM272100 32008G18KT P6SM SCT025 BKN040=



000
FTUS41 KRNK 270532
TAFROA
TAF
KROA 270532Z 2706/2806 30006KT 4SM -SHRA OVC045
     FM270900 30008KT 5SM -SHRA OVC015
     FM271300 32008KT 6SM -RA OVC025
     FM271900 30009KT P6SM SCT025 BKN050
     FM280200 31012G20KT P6SM SCT050=



000
FTUS41 KRNK 270532
TAFBLF
TAF
KBLF 270532Z 2706/2806 33007KT 6SM -SHRA OVC008
     FM270900 32008KT 5SM -SHSN OVC005
     FM271500 33007KT P6SM -SHRA OVC022
     FM272100 32008G18KT P6SM SCT025 BKN040=



000
FTUS41 KRNK 270532
TAFDAN
TAF
KDAN 270532Z 2706/2806 32010KT P6SM OVC050
     FM271000 35010KT 5SM -SHRA OVC022
     FM271600 02007KT P6SM -RA OVC015
     FM272000 02005KT P6SM OVC025
     FM280300 32008KT P6SM BKN050=



000
FTUS41 KRNK 270532
TAFLYH
TAF
KLYH 270532Z 2706/2806 34004KT P6SM -SHRA OVC025
     FM270900 01007KT 4SM -SHRA OVC015
      TEMPO 2711/2713 2SM -SHRA OVC008
     FM271500 02004KT 5SM -RA BR OVC025
     FM272000 36004KT P6SM OVC040=



000
FTUS41 KRNK 270532
TAFLWB
TAF
KLWB 270532Z 2706/2806 32007KT 6SM -SHRA SCT005 OVC025
      TEMPO 2706/2709 2SM -SHRA BR OVC012
     FM271100 32004KT P6SM -RASN SCT007 OVC015
     FM271500 32005KT P6SM SCT015 OVC025
     FM272000 31007KT P6SM OVC040=



000
FTUS41 KRNK 270532
TAFLYH
TAF
KLYH 270532Z 2706/2806 34004KT P6SM -SHRA OVC025
     FM270900 01007KT 4SM -SHRA OVC015
      TEMPO 2711/2713 2SM -SHRA OVC008
     FM271500 02004KT 5SM -RA BR OVC025
     FM272000 36004KT P6SM OVC040=



000
FTUS41 KRNK 270532
TAFBLF
TAF
KBLF 270532Z 2706/2806 33007KT 6SM -SHRA OVC008
     FM270900 32008KT 5SM -SHSN OVC005
     FM271500 33007KT P6SM -SHRA OVC022
     FM272100 32008G18KT P6SM SCT025 BKN040=



000
FTUS41 KRNK 270532
TAFDAN
TAF
KDAN 270532Z 2706/2806 32010KT P6SM OVC050
     FM271000 35010KT 5SM -SHRA OVC022
     FM271600 02007KT P6SM -RA OVC015
     FM272000 02005KT P6SM OVC025
     FM280300 32008KT P6SM BKN050=



000
FTUS41 KRNK 270532
TAFLWB
TAF
KLWB 270532Z 2706/2806 32007KT 6SM -SHRA SCT005 OVC025
      TEMPO 2706/2709 2SM -SHRA BR OVC012
     FM271100 32004KT P6SM -RASN SCT007 OVC015
     FM271500 32005KT P6SM SCT015 OVC025
     FM272000 31007KT P6SM OVC040=



000
FTUS41 KRNK 270532
TAFROA
TAF
KROA 270532Z 2706/2806 30006KT 4SM -SHRA OVC045
     FM270900 30008KT 5SM -SHRA OVC015
     FM271300 32008KT 6SM -RA OVC025
     FM271900 30009KT P6SM SCT025 BKN050
     FM280200 31012G20KT P6SM SCT050=



000
FTUS41 KRNK 270324 AAA
TAFLWB
TAF AMD
KLWB 270324Z 2703/2724 31008KT 5SM -SHRA BR SCT008 OVC015
      TEMPO 2705/2709 2SM -SHRA BR OVC008
     FM270900 31005KT 2SM -SHRA BR OVC007
     FM271300 32003KT P6SM -RASN SCT007 OVC015
     FM271600 30005KT P6SM SCT015 OVC040=



000
FTUS41 KRNK 270324 AAA
TAFLWB
TAF AMD
KLWB 270324Z 2703/2724 31008KT 5SM -SHRA BR SCT008 OVC015
      TEMPO 2705/2709 2SM -SHRA BR OVC008
     FM270900 31005KT 2SM -SHRA BR OVC007
     FM271300 32003KT P6SM -RASN SCT007 OVC015
     FM271600 30005KT P6SM SCT015 OVC040=



000
FTUS41 KRNK 270322 AAA
TAFDAN
TAF AMD
KDAN 270322Z 2703/2724 34010KT P6SM VCSH OVC040
     FM270700 35012G24KT 4SM -SHRA OVC012
     FM271500 01004KT P6SM -RA OVC020
     FM272000 07003KT P6SM OVC025=



000
FTUS41 KRNK 270322 AAA
TAFDAN
TAF AMD
KDAN 270322Z 2703/2724 34010KT P6SM VCSH OVC040
     FM270700 35012G24KT 4SM -SHRA OVC012
     FM271500 01004KT P6SM -RA OVC020
     FM272000 07003KT P6SM OVC025=



000
FTUS41 KRNK 270318 AAA
TAFLYH
TAF AMD
KLYH 270318Z 2703/2724 33010KT P6SM OVC040
      TEMPO 2703/2705 4SM -SHRA BKN025
     FM270600 34012KT 5SM -SHRA OVC012
     FM271200 36006KT 2SM -RA BR OVC008
     FM271500 03004KT 5SM -RA BR OVC015
     FM271900 15004KT P6SM OVC025=



000
FTUS41 KRNK 270318 AAA
TAFLYH
TAF AMD
KLYH 270318Z 2703/2724 33010KT P6SM OVC040
      TEMPO 2703/2705 4SM -SHRA BKN025
     FM270600 34012KT 5SM -SHRA OVC012
     FM271200 36006KT 2SM -RA BR OVC008
     FM271500 03004KT 5SM -RA BR OVC015
     FM271900 15004KT P6SM OVC025=



000
FTUS41 KRNK 270318 AAA
TAFLYH
TAF AMD
KLYH 270318Z 2703/2724 33010KT P6SM OVC040
      TEMPO 2703/2705 4SM -SHRA BKN025
     FM270600 34012KT 5SM -SHRA OVC012
     FM271200 36006KT 2SM -RA BR OVC008
     FM271500 03004KT 5SM -RA BR OVC015
     FM271900 15004KT P6SM OVC025=



000
FTUS41 KRNK 270318 AAA
TAFLYH
TAF AMD
KLYH 270318Z 2703/2724 33010KT P6SM OVC040
      TEMPO 2703/2705 4SM -SHRA BKN025
     FM270600 34012KT 5SM -SHRA OVC012
     FM271200 36006KT 2SM -RA BR OVC008
     FM271500 03004KT 5SM -RA BR OVC015
     FM271900 15004KT P6SM OVC025=



000
FTUS41 KRNK 270048 AAA
TAFROA
TAF AMD
KROA 270048Z 2701/2724 32010G20KT P6SM -SHRA SCT025 OVC050
      TEMPO 2701/2703 4SM SHRA OVC025
     FM270300 28009KT P6SM SCT025 OVC040
     FM270500 30012G22KT 4SM -SHRA OVC035
     FM270700 32010KT 5SM -RA OVC020
     FM271400 32008KT 6SM -RA OVC015
     FM271800 33007KT P6SM SCT025 BKN060=



000
FTUS41 KRNK 270048 AAA
TAFROA
TAF AMD
KROA 270048Z 2701/2724 32010G20KT P6SM -SHRA SCT025 OVC050
      TEMPO 2701/2703 4SM SHRA OVC025
     FM270300 28009KT P6SM SCT025 OVC040
     FM270500 30012G22KT 4SM -SHRA OVC035
     FM270700 32010KT 5SM -RA OVC020
     FM271400 32008KT 6SM -RA OVC015
     FM271800 33007KT P6SM SCT025 BKN060=



000
FTUS41 KRNK 270048 AAA
TAFROA
TAF AMD
KROA 270048Z 2701/2724 32010G20KT P6SM -SHRA SCT025 OVC050
      TEMPO 2701/2703 4SM SHRA OVC025
     FM270300 28009KT P6SM SCT025 OVC040
     FM270500 30012G22KT 4SM -SHRA OVC035
     FM270700 32010KT 5SM -RA OVC020
     FM271400 32008KT 6SM -RA OVC015
     FM271800 33007KT P6SM SCT025 BKN060=



000
FTUS41 KRNK 270048 AAA
TAFROA
TAF AMD
KROA 270048Z 2701/2724 32010G20KT P6SM -SHRA SCT025 OVC050
      TEMPO 2701/2703 4SM SHRA OVC025
     FM270300 28009KT P6SM SCT025 OVC040
     FM270500 30012G22KT 4SM -SHRA OVC035
     FM270700 32010KT 5SM -RA OVC020
     FM271400 32008KT 6SM -RA OVC015
     FM271800 33007KT P6SM SCT025 BKN060=



000
FTUS41 KRNK 262341
TAFDAN
TAF
KDAN 262341Z 2700/2724 20008G15KT P6SM OVC250
     FM270400 27008G18KT P6SM VCSH OVC040
     FM270700 35012G24KT 4SM -SHRA OVC012
     FM271500 01004KT P6SM -RA OVC020
     FM272000 07003KT P6SM OVC025=



000
FTUS41 KRNK 262341
TAFLYH
TAF
KLYH 262341Z 2700/2724 20010G20KT P6SM SCT015 BKN200
     FM270200 25012G24KT 6SM -SHRA OVC040
      TEMPO 2702/2704 4SM -SHRA BKN025
     FM270400 30010KT P6SM VCSH BKN025 OVC040
     FM270600 34012KT 5SM -SHRA OVC012
     FM271200 36006KT 2SM -RA BR OVC008
     FM271500 03004KT 5SM -RA BR OVC015
     FM271900 15004KT P6SM OVC025=



000
FTUS41 KRNK 262341
TAFDAN
TAF
KDAN 262341Z 2700/2724 20008G15KT P6SM OVC250
     FM270400 27008G18KT P6SM VCSH OVC040
     FM270700 35012G24KT 4SM -SHRA OVC012
     FM271500 01004KT P6SM -RA OVC020
     FM272000 07003KT P6SM OVC025=



000
FTUS41 KRNK 262341
TAFROA
TAF
KROA 262341Z 2700/2724 26012G22KT 5SM -SHRA OVC025
      TEMPO 2700/2702 2SM SHRA BKN018
     FM270200 28009KT P6SM SCT025 OVC040
     FM270400 30012G22KT 4SM -SHRA OVC035
     FM270600 32010KT 5SM -RA OVC020
     FM271400 32008KT 6SM -RA OVC015
     FM271800 33007KT P6SM SCT025 BKN060=



000
FTUS41 KRNK 262341
TAFBLF
TAF
KBLF 262341Z 2700/2724 28008KT P6SM -SHRA OVC007
      TEMPO 2700/2703 4SM -SHRA BR
     FM270600 31009KT 2SM -SHRA BR OVC005
     FM270900 32008KT 3SM -SN BR SCT005 BKN015
     FM271500 32008KT P6SM OVC015
     FM272100 33008KT P6SM SCT025 BKN100=



000
FTUS41 KRNK 262341
TAFROA
TAF
KROA 262341Z 2700/2724 26012G22KT 5SM -SHRA OVC025
      TEMPO 2700/2702 2SM SHRA BKN018
     FM270200 28009KT P6SM SCT025 OVC040
     FM270400 30012G22KT 4SM -SHRA OVC035
     FM270600 32010KT 5SM -RA OVC020
     FM271400 32008KT 6SM -RA OVC015
     FM271800 33007KT P6SM SCT025 BKN060=



000
FTUS41 KRNK 262341
TAFLWB
TAF
KLWB 262341Z 2700/2724 31007KT P6SM -SHRA SCT025 OVC050
      TEMPO 2700/2704 4SM -SHRA OVC025
     FM270400 31008KT 3SM -SHRA BR OVC008
     FM270900 31005KT 2SM -SHRA BR OVC007
     FM271300 32003KT P6SM -RASN SCT007 OVC015
     FM271600 30005KT P6SM SCT015 OVC040=



000
FTUS41 KRNK 262341
TAFLYH
TAF
KLYH 262341Z 2700/2724 20010G20KT P6SM SCT015 BKN200
     FM270200 25012G24KT 6SM -SHRA OVC040
      TEMPO 2702/2704 4SM -SHRA BKN025
     FM270400 30010KT P6SM VCSH BKN025 OVC040
     FM270600 34012KT 5SM -SHRA OVC012
     FM271200 36006KT 2SM -RA BR OVC008
     FM271500 03004KT 5SM -RA BR OVC015
     FM271900 15004KT P6SM OVC025=



000
FTUS41 KRNK 262341
TAFLYH
TAF
KLYH 262341Z 2700/2724 20010G20KT P6SM SCT015 BKN200
     FM270200 25012G24KT 6SM -SHRA OVC040
      TEMPO 2702/2704 4SM -SHRA BKN025
     FM270400 30010KT P6SM VCSH BKN025 OVC040
     FM270600 34012KT 5SM -SHRA OVC012
     FM271200 36006KT 2SM -RA BR OVC008
     FM271500 03004KT 5SM -RA BR OVC015
     FM271900 15004KT P6SM OVC025=



000
FTUS41 KRNK 262341
TAFROA
TAF
KROA 262341Z 2700/2724 26012G22KT 5SM -SHRA OVC025
      TEMPO 2700/2702 2SM SHRA BKN018
     FM270200 28009KT P6SM SCT025 OVC040
     FM270400 30012G22KT 4SM -SHRA OVC035
     FM270600 32010KT 5SM -RA OVC020
     FM271400 32008KT 6SM -RA OVC015
     FM271800 33007KT P6SM SCT025 BKN060=



000
FTUS41 KRNK 262341
TAFBLF
TAF
KBLF 262341Z 2700/2724 28008KT P6SM -SHRA OVC007
      TEMPO 2700/2703 4SM -SHRA BR
     FM270600 31009KT 2SM -SHRA BR OVC005
     FM270900 32008KT 3SM -SN BR SCT005 BKN015
     FM271500 32008KT P6SM OVC015
     FM272100 33008KT P6SM SCT025 BKN100=



000
FTUS41 KRNK 262341
TAFLWB
TAF
KLWB 262341Z 2700/2724 31007KT P6SM -SHRA SCT025 OVC050
      TEMPO 2700/2704 4SM -SHRA OVC025
     FM270400 31008KT 3SM -SHRA BR OVC008
     FM270900 31005KT 2SM -SHRA BR OVC007
     FM271300 32003KT P6SM -RASN SCT007 OVC015
     FM271600 30005KT P6SM SCT015 OVC040=



000
FTUS41 KRNK 262341
TAFDAN
TAF
KDAN 262341Z 2700/2724 20008G15KT P6SM OVC250
     FM270400 27008G18KT P6SM VCSH OVC040
     FM270700 35012G24KT 4SM -SHRA OVC012
     FM271500 01004KT P6SM -RA OVC020
     FM272000 07003KT P6SM OVC025=



000
FTUS41 KRNK 262341
TAFLWB
TAF
KLWB 262341Z 2700/2724 31007KT P6SM -SHRA SCT025 OVC050
      TEMPO 2700/2704 4SM -SHRA OVC025
     FM270400 31008KT 3SM -SHRA BR OVC008
     FM270900 31005KT 2SM -SHRA BR OVC007
     FM271300 32003KT P6SM -RASN SCT007 OVC015
     FM271600 30005KT P6SM SCT015 OVC040=



000
FTUS41 KRNK 262341
TAFBLF
TAF
KBLF 262341Z 2700/2724 28008KT P6SM -SHRA OVC007
      TEMPO 2700/2703 4SM -SHRA BR
     FM270600 31009KT 2SM -SHRA BR OVC005
     FM270900 32008KT 3SM -SN BR SCT005 BKN015
     FM271500 32008KT P6SM OVC015
     FM272100 33008KT P6SM SCT025 BKN100=



000
FTUS41 KRNK 262341
TAFBLF
TAF
KBLF 262341Z 2700/2724 28008KT P6SM -SHRA OVC007
      TEMPO 2700/2703 4SM -SHRA BR
     FM270600 31009KT 2SM -SHRA BR OVC005
     FM270900 32008KT 3SM -SN BR SCT005 BKN015
     FM271500 32008KT P6SM OVC015
     FM272100 33008KT P6SM SCT025 BKN100=



000
FTUS41 KRNK 262341
TAFLWB
TAF
KLWB 262341Z 2700/2724 31007KT P6SM -SHRA SCT025 OVC050
      TEMPO 2700/2704 4SM -SHRA OVC025
     FM270400 31008KT 3SM -SHRA BR OVC008
     FM270900 31005KT 2SM -SHRA BR OVC007
     FM271300 32003KT P6SM -RASN SCT007 OVC015
     FM271600 30005KT P6SM SCT015 OVC040=



000
FTUS41 KRNK 262341
TAFROA
TAF
KROA 262341Z 2700/2724 26012G22KT 5SM -SHRA OVC025
      TEMPO 2700/2702 2SM SHRA BKN018
     FM270200 28009KT P6SM SCT025 OVC040
     FM270400 30012G22KT 4SM -SHRA OVC035
     FM270600 32010KT 5SM -RA OVC020
     FM271400 32008KT 6SM -RA OVC015
     FM271800 33007KT P6SM SCT025 BKN060=



000
FTUS41 KRNK 262341
TAFDAN
TAF
KDAN 262341Z 2700/2724 20008G15KT P6SM OVC250
     FM270400 27008G18KT P6SM VCSH OVC040
     FM270700 35012G24KT 4SM -SHRA OVC012
     FM271500 01004KT P6SM -RA OVC020
     FM272000 07003KT P6SM OVC025=



000
FTUS41 KRNK 262341
TAFLYH
TAF
KLYH 262341Z 2700/2724 20010G20KT P6SM SCT015 BKN200
     FM270200 25012G24KT 6SM -SHRA OVC040
      TEMPO 2702/2704 4SM -SHRA BKN025
     FM270400 30010KT P6SM VCSH BKN025 OVC040
     FM270600 34012KT 5SM -SHRA OVC012
     FM271200 36006KT 2SM -RA BR OVC008
     FM271500 03004KT 5SM -RA BR OVC015
     FM271900 15004KT P6SM OVC025=



000
FTUS41 KRNK 262307 AAA
TAFROA
TAF AMD
KROA 262307Z 2623/2718 22012KT P6SM VCSH BKN050
     FM262330 28012G22KT 5SM -SHRA OVC025
      TEMPO 2700/2701 2SM SHRA BKN018
     FM270100 30012G22KT 4SM -SHRA OVC035
     FM270600 31008KT 5SM -RA OVC020
     FM271400 33008KT 3SM -RA OVC015=



000
FTUS41 KRNK 262245 AAC
TAFLWB
TAF AMD
KLWB 262245Z 2623/2718 31012G22KT P6SM -SHRA SCT015 OVC035
     FM270100 31010KT 4SM -SHRA OVC015
     FM270500 30008KT 3SM BR OVC008
     FM270900 31005KT 2SM -RA BR OVC007
     FM271300 32003KT P6SM -RASN SCT007 OVC015=



000
FTUS41 KRNK 262245 AAC
TAFLWB
TAF AMD
KLWB 262245Z 2623/2718 31012G22KT P6SM -SHRA SCT015 OVC035
     FM270100 31010KT 4SM -SHRA OVC015
     FM270500 30008KT 3SM BR OVC008
     FM270900 31005KT 2SM -RA BR OVC007
     FM271300 32003KT P6SM -RASN SCT007 OVC015=



000
FTUS41 KRNK 262241 AAB
TAFBLF
TAF AMD
KBLF 262241Z 2623/2718 29008G16KT P6SM -SHRA SCT008 OVC015
      TEMPO 2623/2701 BKN008
     FM270600 33009KT 2SM -RA BR OVC005
     FM270900 32008KT 3SM -SHSN BR SCT005 BKN015
     FM271500 31006KT P6SM OVC015=



000
FTUS41 KRNK 262241 AAB
TAFBLF
TAF AMD
KBLF 262241Z 2623/2718 29008G16KT P6SM -SHRA SCT008 OVC015
      TEMPO 2623/2701 BKN008
     FM270600 33009KT 2SM -RA BR OVC005
     FM270900 32008KT 3SM -SHSN BR SCT005 BKN015
     FM271500 31006KT P6SM OVC015=



000
FTUS41 KRNK 262241 AAB
TAFBLF
TAF AMD
KBLF 262241Z 2623/2718 29008G16KT P6SM -SHRA SCT008 OVC015
      TEMPO 2623/2701 BKN008
     FM270600 33009KT 2SM -RA BR OVC005
     FM270900 32008KT 3SM -SHSN BR SCT005 BKN015
     FM271500 31006KT P6SM OVC015=



000
FTUS41 KRNK 262241 AAB
TAFBLF
TAF AMD
KBLF 262241Z 2623/2718 29008G16KT P6SM -SHRA SCT008 OVC015
      TEMPO 2623/2701 BKN008
     FM270600 33009KT 2SM -RA BR OVC005
     FM270900 32008KT 3SM -SHSN BR SCT005 BKN015
     FM271500 31006KT P6SM OVC015=



000
FTUS41 KRNK 262149 AAB
TAFLWB
TAF AMD
KLWB 262149Z 2622/2718 30012G22KT 5SM -SHRA SCT015 OVC035
      TEMPO 2622/2623 1SM TSRA BR OVC025CB
     FM270100 31010KT 4SM -SHRA OVC015
     FM270500 30008KT 3SM BR OVC008
     FM270900 31005KT 2SM -RA BR OVC007
     FM271300 32003KT P6SM -RASN SCT007 OVC015=



000
FTUS41 KRNK 262149 AAB
TAFLWB
TAF AMD
KLWB 262149Z 2622/2718 30012G22KT 5SM -SHRA SCT015 OVC035
      TEMPO 2622/2623 1SM TSRA BR OVC025CB
     FM270100 31010KT 4SM -SHRA OVC015
     FM270500 30008KT 3SM BR OVC008
     FM270900 31005KT 2SM -RA BR OVC007
     FM271300 32003KT P6SM -RASN SCT007 OVC015=



000
FTUS41 KRNK 262149 AAB
TAFLWB
TAF AMD
KLWB 262149Z 2622/2718 30012G22KT 5SM -SHRA SCT015 OVC035
      TEMPO 2622/2623 1SM TSRA BR OVC025CB
     FM270100 31010KT 4SM -SHRA OVC015
     FM270500 30008KT 3SM BR OVC008
     FM270900 31005KT 2SM -RA BR OVC007
     FM271300 32003KT P6SM -RASN SCT007 OVC015=



000
FTUS41 KRNK 262149 AAB
TAFLWB
TAF AMD
KLWB 262149Z 2622/2718 30012G22KT 5SM -SHRA SCT015 OVC035
      TEMPO 2622/2623 1SM TSRA BR OVC025CB
     FM270100 31010KT 4SM -SHRA OVC015
     FM270500 30008KT 3SM BR OVC008
     FM270900 31005KT 2SM -RA BR OVC007
     FM271300 32003KT P6SM -RASN SCT007 OVC015=



000
FTUS41 KRNK 262143 AAA
TAFBLF
TAF AMD
KBLF 262143Z 2622/2718 30010G22KT 6SM -SHRA OVC035
     FM270100 31010G18KT 4SM -SHRA OVC015
     FM270600 33009KT 2SM -RA BR OVC005
     FM270900 32008KT 3SM -SHSN BR SCT005 BKN015
     FM271500 31006KT P6SM OVC015=



000
FTUS41 KRNK 262143 AAA
TAFBLF
TAF AMD
KBLF 262143Z 2622/2718 30010G22KT 6SM -SHRA OVC035
     FM270100 31010G18KT 4SM -SHRA OVC015
     FM270600 33009KT 2SM -RA BR OVC005
     FM270900 32008KT 3SM -SHSN BR SCT005 BKN015
     FM271500 31006KT P6SM OVC015=



000
FTUS41 KRNK 262118 AAA
TAFLWB
TAF AMD
KLWB 262118Z 2621/2718 25009G15KT P6SM VCSH OVC050
     FM262200 25012G25KT 5SM -SHRA SCT015 OVC035
      TEMPO 2622/2623 1SM TSRA BR OVC025CB
     FM270100 31010KT 4SM -SHRA OVC015
     FM270500 30008KT 3SM BR OVC008
     FM270900 31005KT 2SM -RA BR OVC007
     FM271300 32003KT P6SM -RASN SCT007 OVC015=



000
FTUS41 KRNK 262118 AAA
TAFLWB
TAF AMD
KLWB 262118Z 2621/2718 25009G15KT P6SM VCSH OVC050
     FM262200 25012G25KT 5SM -SHRA SCT015 OVC035
      TEMPO 2622/2623 1SM TSRA BR OVC025CB
     FM270100 31010KT 4SM -SHRA OVC015
     FM270500 30008KT 3SM BR OVC008
     FM270900 31005KT 2SM -RA BR OVC007
     FM271300 32003KT P6SM -RASN SCT007 OVC015=



000
FTUS41 KRNK 261734
TAFROA
TAF
KROA 261734Z 2618/2718 13008KT P6SM SCT050 BKN100
     FM262000 22010G18KT P6SM BKN050
     FM270100 30012G22KT 4SM -SHRA OVC035
     FM270600 31008KT 5SM -RA OVC020
     FM271400 33008KT 3SM -RA OVC015=



000
FTUS41 KRNK 261734
TAFBLF
TAF
KBLF 261734Z 2618/2718 24014G25KT P6SM SCT025 BKN050
     FM262100 26010G22KT 6SM -SHRA OVC035
     FM262200 28014G28KT 3SM -TSRA SCT015 OVC030CB
     FM270100 31010G18KT 4SM -SHRA OVC015
     FM270600 33009KT 2SM -RA BR OVC005
     FM270900 32008KT 3SM -SHSN BR SCT005 BKN015
     FM271500 31006KT P6SM OVC015=



000
FTUS41 KRNK 261734
TAFDAN
TAF
KDAN 261734Z 2618/2718 22009G19KT P6SM SCT007 BKN035
     FM261900 22012G20KT P6SM BKN050
     FM270400 30008G18KT P6SM VCSH OVC040
     FM270700 35012G24KT 5SM -SHRA OVC018
     FM271500 01004KT P6SM SCT018 OVC025=



000
FTUS41 KRNK 261734
TAFDAN
TAF
KDAN 261734Z 2618/2718 22009G19KT P6SM SCT007 BKN035
     FM261900 22012G20KT P6SM BKN050
     FM270400 30008G18KT P6SM VCSH OVC040
     FM270700 35012G24KT 5SM -SHRA OVC018
     FM271500 01004KT P6SM SCT018 OVC025=



000
FTUS41 KRNK 261734
TAFBLF
TAF
KBLF 261734Z 2618/2718 24014G25KT P6SM SCT025 BKN050
     FM262100 26010G22KT 6SM -SHRA OVC035
     FM262200 28014G28KT 3SM -TSRA SCT015 OVC030CB
     FM270100 31010G18KT 4SM -SHRA OVC015
     FM270600 33009KT 2SM -RA BR OVC005
     FM270900 32008KT 3SM -SHSN BR SCT005 BKN015
     FM271500 31006KT P6SM OVC015=



000
FTUS41 KRNK 261734
TAFLWB
TAF
KLWB 261734Z 2618/2718 25009G15KT P6SM VCSH OVC050
     FM262300 25012G25KT 5SM -TSRA SCT015 OVC035CB
     FM270100 31010KT 4SM -SHRA OVC015
     FM270500 30008KT 3SM BR OVC008
     FM270900 31005KT 2SM -RA BR OVC007
     FM271300 32003KT P6SM -RASN SCT007 OVC015=



000
FTUS41 KRNK 261734
TAFLWB
TAF
KLWB 261734Z 2618/2718 25009G15KT P6SM VCSH OVC050
     FM262300 25012G25KT 5SM -TSRA SCT015 OVC035CB
     FM270100 31010KT 4SM -SHRA OVC015
     FM270500 30008KT 3SM BR OVC008
     FM270900 31005KT 2SM -RA BR OVC007
     FM271300 32003KT P6SM -RASN SCT007 OVC015=



000
FTUS41 KRNK 261734
TAFLYH
TAF
KLYH 261734Z 2618/2718 20010G20KT P6SM SCT015 BKN050
     FM270200 24012G24KT 3SM -TSRA OVC025CB
     FM270400 30010KT P6SM -RA OVC050
     FM270600 34012KT 5SM -SHRA OVC018
     FM271200 36006KT 1 1/2SM -RA BR OVC003
     FM271500 01004KT P6SM SCT007 OVC025=



000
FTUS41 KRNK 261734
TAFLYH
TAF
KLYH 261734Z 2618/2718 20010G20KT P6SM SCT015 BKN050
     FM270200 24012G24KT 3SM -TSRA OVC025CB
     FM270400 30010KT P6SM -RA OVC050
     FM270600 34012KT 5SM -SHRA OVC018
     FM271200 36006KT 1 1/2SM -RA BR OVC003
     FM271500 01004KT P6SM SCT007 OVC025=



000
FTUS41 KRNK 261734
TAFROA
TAF
KROA 261734Z 2618/2718 13008KT P6SM SCT050 BKN100
     FM262000 22010G18KT P6SM BKN050
     FM270100 30012G22KT 4SM -SHRA OVC035
     FM270600 31008KT 5SM -RA OVC020
     FM271400 33008KT 3SM -RA OVC015=



000
FTUS41 KRNK 261642 AAF
TAFDAN
TAF AMD
KDAN 261642Z 2617/2712 22009KT P6SM SCT007 BKN035
     FM261900 22012G20KT P6SM BKN050
     FM270400 30008G18KT P6SM OVC040
     FM270700 35009KT 5SM -SHRA OVC018=



000
FTUS41 KRNK 261642 AAF
TAFDAN
TAF AMD
KDAN 261642Z 2617/2712 22009KT P6SM SCT007 BKN035
     FM261900 22012G20KT P6SM BKN050
     FM270400 30008G18KT P6SM OVC040
     FM270700 35009KT 5SM -SHRA OVC018=



000
FTUS41 KRNK 261600 AAE
TAFDAN
TAF AMD
KDAN 261600Z 2616/2712 21005KT P6SM OVC005
     FM261700 22008G18KT P6SM OVC025
     FM261900 22012G20KT P6SM BKN050
     FM270400 30008G18KT P6SM OVC040
     FM270700 35009KT 5SM -SHRA OVC018=



000
FTUS41 KRNK 261600 AAE
TAFDAN
TAF AMD
KDAN 261600Z 2616/2712 21005KT P6SM OVC005
     FM261700 22008G18KT P6SM OVC025
     FM261900 22012G20KT P6SM BKN050
     FM270400 30008G18KT P6SM OVC040
     FM270700 35009KT 5SM -SHRA OVC018=



000
FTUS41 KRNK 261600 AAE
TAFDAN
TAF AMD
KDAN 261600Z 2616/2712 21005KT P6SM OVC005
     FM261700 22008G18KT P6SM OVC025
     FM261900 22012G20KT P6SM BKN050
     FM270400 30008G18KT P6SM OVC040
     FM270700 35009KT 5SM -SHRA OVC018=



000
FTUS41 KRNK 261600 AAE
TAFDAN
TAF AMD
KDAN 261600Z 2616/2712 21005KT P6SM OVC005
     FM261700 22008G18KT P6SM OVC025
     FM261900 22012G20KT P6SM BKN050
     FM270400 30008G18KT P6SM OVC040
     FM270700 35009KT 5SM -SHRA OVC018=



000
FTUS41 KRNK 261559 AAE
TAFLYH
TAF AMD
KLYH 261559Z 2616/2712 20014KT P6SM SCT010
     FM261630 21006KT P6SM OVC015
     FM261800 21012G20KT P6SM BKN050
     FM270400 30010KT P6SM OVC050
     FM270600 34009KT 5SM -SHRA OVC018=



000
FTUS41 KRNK 261559 AAE
TAFLYH
TAF AMD
KLYH 261559Z 2616/2712 20014KT P6SM SCT010
     FM261630 21006KT P6SM OVC015
     FM261800 21012G20KT P6SM BKN050
     FM270400 30010KT P6SM OVC050
     FM270600 34009KT 5SM -SHRA OVC018=



000
FTUS41 KRNK 261559 AAE
TAFLYH
TAF AMD
KLYH 261559Z 2616/2712 20014KT P6SM SCT010
     FM261630 21006KT P6SM OVC015
     FM261800 21012G20KT P6SM BKN050
     FM270400 30010KT P6SM OVC050
     FM270600 34009KT 5SM -SHRA OVC018=



000
FTUS41 KRNK 261529 AAD
TAFDAN
TAF AMD
KDAN 261529Z 2615/2712 VRB03KT 2SM BR OVC002
     FM261600 22008G18KT P6SM OVC025
     FM261900 22012G20KT P6SM BKN050
     FM270400 30008G18KT P6SM OVC040
     FM270700 35009KT 5SM -SHRA OVC018=



000
FTUS41 KRNK 261529 AAD
TAFDAN
TAF AMD
KDAN 261529Z 2615/2712 VRB03KT 2SM BR OVC002
     FM261600 22008G18KT P6SM OVC025
     FM261900 22012G20KT P6SM BKN050
     FM270400 30008G18KT P6SM OVC040
     FM270700 35009KT 5SM -SHRA OVC018=



000
FTUS41 KRNK 261529 AAD
TAFLYH
TAF AMD
KLYH 261529Z 2615/2712 19007KT P6SM OVC006
     FM261630 21006KT P6SM OVC015
     FM261800 21012G20KT P6SM BKN050
     FM270400 30010KT P6SM OVC050
     FM270600 34009KT 5SM -SHRA OVC018=



000
FTUS41 KRNK 261529 AAD
TAFLYH
TAF AMD
KLYH 261529Z 2615/2712 19007KT P6SM OVC006
     FM261630 21006KT P6SM OVC015
     FM261800 21012G20KT P6SM BKN050
     FM270400 30010KT P6SM OVC050
     FM270600 34009KT 5SM -SHRA OVC018=



000
FTUS41 KRNK 261508 AAC
TAFLYH
TAF AMD
KLYH 261508Z 2615/2712 21008KT 1SM BR OVC002
     FM261630 21006KT P6SM OVC015
     FM261800 21012G20KT P6SM BKN050
     FM270400 30010KT P6SM OVC050
     FM270600 34009KT 5SM -SHRA OVC018=



000
FTUS41 KRNK 261508 AAC
TAFLYH
TAF AMD
KLYH 261508Z 2615/2712 21008KT 1SM BR OVC002
     FM261630 21006KT P6SM OVC015
     FM261800 21012G20KT P6SM BKN050
     FM270400 30010KT P6SM OVC050
     FM270600 34009KT 5SM -SHRA OVC018=



000
FTUS41 KRNK 261508 AAC
TAFLYH
TAF AMD
KLYH 261508Z 2615/2712 21008KT 1SM BR OVC002
     FM261630 21006KT P6SM OVC015
     FM261800 21012G20KT P6SM BKN050
     FM270400 30010KT P6SM OVC050
     FM270600 34009KT 5SM -SHRA OVC018=



000
FTUS41 KRNK 261508 AAC
TAFLYH
TAF AMD
KLYH 261508Z 2615/2712 21008KT 1SM BR OVC002
     FM261630 21006KT P6SM OVC015
     FM261800 21012G20KT P6SM BKN050
     FM270400 30010KT P6SM OVC050
     FM270600 34009KT 5SM -SHRA OVC018=



000
FTUS41 KRNK 261423 AAB
TAFROA
TAF AMD
KROA 261423Z 2614/2712 02003KT P6SM VCSH SCT008 BKN035
     FM261500 VRB03KT P6SM OVC040
     FM261800 22010G18KT P6SM SCT050
     FM270300 30012G22KT P6SM OVC050
     FM270600 31008KT 5SM -RA OVC020=



000
FTUS41 KRNK 261423 AAB
TAFROA
TAF AMD
KROA 261423Z 2614/2712 02003KT P6SM VCSH SCT008 BKN035
     FM261500 VRB03KT P6SM OVC040
     FM261800 22010G18KT P6SM SCT050
     FM270300 30012G22KT P6SM OVC050
     FM270600 31008KT 5SM -RA OVC020=



000
FTUS41 KRNK 261423 AAC
TAFDAN
TAF AMD
KDAN 261423Z 2614/2712 00000KT 1/2SM FG VV002
     FM261600 22008G18KT P6SM OVC025
     FM261900 22012G20KT P6SM BKN050
     FM270400 30008G18KT P6SM OVC040
     FM270700 35009KT 5SM -SHRA OVC018=



000
FTUS41 KRNK 261423 AAB
TAFROA
TAF AMD
KROA 261423Z 2614/2712 02003KT P6SM VCSH SCT008 BKN035
     FM261500 VRB03KT P6SM OVC040
     FM261800 22010G18KT P6SM SCT050
     FM270300 30012G22KT P6SM OVC050
     FM270600 31008KT 5SM -RA OVC020=



000
FTUS41 KRNK 261423 AAB
TAFROA
TAF AMD
KROA 261423Z 2614/2712 02003KT P6SM VCSH SCT008 BKN035
     FM261500 VRB03KT P6SM OVC040
     FM261800 22010G18KT P6SM SCT050
     FM270300 30012G22KT P6SM OVC050
     FM270600 31008KT 5SM -RA OVC020=



000
FTUS41 KRNK 261413 AAB
TAFDAN
TAF AMD
KDAN 261413Z 2614/2712 26004KT 1/4SM FG VV002
     FM261600 22008G18KT P6SM OVC025
     FM261900 22012G20KT P6SM BKN050
     FM270400 30008G18KT P6SM OVC040
     FM270700 35009KT 5SM -SHRA OVC018=



000
FTUS41 KRNK 261413 AAB
TAFDAN
TAF AMD
KDAN 261413Z 2614/2712 26004KT 1/4SM FG VV002
     FM261600 22008G18KT P6SM OVC025
     FM261900 22012G20KT P6SM BKN050
     FM270400 30008G18KT P6SM OVC040
     FM270700 35009KT 5SM -SHRA OVC018=



000
FTUS41 KRNK 261412 AAB
TAFLYH
TAF AMD
KLYH 261412Z 2614/2712 20006KT 1/2SM FG OVC002
     FM261500 21006KT P6SM OVC015
     FM261800 21012G20KT P6SM BKN050
     FM270400 30010KT P6SM OVC050
     FM270600 34009KT 5SM -SHRA OVC018=



000
FTUS41 KRNK 261412 AAA
TAFROA
TAF AMD
KROA 261412Z 2614/2712 02003KT P6SM VCSH OVC008
     FM261500 VRB03KT P6SM OVC040
     FM261800 22010G18KT P6SM SCT050
     FM270300 30012G22KT P6SM OVC050
     FM270600 31008KT 5SM -RA OVC020=



000
FTUS41 KRNK 261412 AAA
TAFROA
TAF AMD
KROA 261412Z 2614/2712 02003KT P6SM VCSH OVC008
     FM261500 VRB03KT P6SM OVC040
     FM261800 22010G18KT P6SM SCT050
     FM270300 30012G22KT P6SM OVC050
     FM270600 31008KT 5SM -RA OVC020=



000
FTUS41 KRNK 261412 AAB
TAFLYH
TAF AMD
KLYH 261412Z 2614/2712 20006KT 1/2SM FG OVC002
     FM261500 21006KT P6SM OVC015
     FM261800 21012G20KT P6SM BKN050
     FM270400 30010KT P6SM OVC050
     FM270600 34009KT 5SM -SHRA OVC018=



000
FTUS41 KRNK 261256 CCA
TAFLYH
TAF COR
KLYH 261256Z 2613/2712 24003KT 3SM BR OVC006
     FM261500 21006KT P6SM OVC015
     FM261800 21012G20KT P6SM BKN050
     FM270400 30010KT P6SM OVC050
     FM270600 34009KT 5SM -SHRA OVC018=



000
FTUS41 KRNK 261256 CCA
TAFLYH
TAF COR
KLYH 261256Z 2613/2712 24003KT 3SM BR OVC006
     FM261500 21006KT P6SM OVC015
     FM261800 21012G20KT P6SM BKN050
     FM270400 30010KT P6SM OVC050
     FM270600 34009KT 5SM -SHRA OVC018=



000
FTUS41 KRNK 261256 CCA
TAFLYH
TAF COR
KLYH 261256Z 2613/2712 24003KT 3SM BR OVC006
     FM261500 21006KT P6SM OVC015
     FM261800 21012G20KT P6SM BKN050
     FM270400 30010KT P6SM OVC050
     FM270600 34009KT 5SM -SHRA OVC018=



000
FTUS41 KRNK 261256 AAA
TAFDAN
TAF AMD
KDAN 261256Z 2613/2712 00000KT 2SM BR OVC003
     FM261600 22008G18KT P6SM OVC025
     FM261900 22012G20KT P6SM BKN050
     FM270400 30008G18KT P6SM OVC040
     FM270700 35009KT 5SM -SHRA OVC018=



000
FTUS41 KRNK 261256 AAA
TAFDAN
TAF AMD
KDAN 261256Z 2613/2712 00000KT 2SM BR OVC003
     FM261600 22008G18KT P6SM OVC025
     FM261900 22012G20KT P6SM BKN050
     FM270400 30008G18KT P6SM OVC040
     FM270700 35009KT 5SM -SHRA OVC018=



000
FTUS41 KRNK 261256 AAA
TAFDAN
TAF AMD
KDAN 261256Z 2613/2712 00000KT 2SM BR OVC003
     FM261600 22008G18KT P6SM OVC025
     FM261900 22012G20KT P6SM BKN050
     FM270400 30008G18KT P6SM OVC040
     FM270700 35009KT 5SM -SHRA OVC018=



000
FTUS41 KRNK 261256 AAA
TAFDAN
TAF AMD
KDAN 261256Z 2613/2712 00000KT 2SM BR OVC003
     FM261600 22008G18KT P6SM OVC025
     FM261900 22012G20KT P6SM BKN050
     FM270400 30008G18KT P6SM OVC040
     FM270700 35009KT 5SM -SHRA OVC018=



000
FTUS41 KRNK 261256 CCA
TAFLYH
TAF COR
KLYH 261256Z 2613/2712 24003KT 3SM BR OVC006
     FM261500 21006KT P6SM OVC015
     FM261800 21012G20KT P6SM BKN050
     FM270400 30010KT P6SM OVC050
     FM270600 34009KT 5SM -SHRA OVC018=



000
FTUS41 KRNK 261244 AAA
TAFLYH
TAF AMD
KLYH 261244Z 2613/2712 00000KT 2SM -RA BR OVC006
     FM261500 21006KT P6SM OVC015
     FM261800 21012G20KT P6SM BKN050
     FM270400 30010KT P6SM OVC050
     FM270600 34009KT 5SM -SHRA OVC018=



000
FTUS41 KRNK 261244 AAA
TAFLYH
TAF AMD
KLYH 261244Z 2613/2712 00000KT 2SM -RA BR OVC006
     FM261500 21006KT P6SM OVC015
     FM261800 21012G20KT P6SM BKN050
     FM270400 30010KT P6SM OVC050
     FM270600 34009KT 5SM -SHRA OVC018=



000
FTUS41 KRNK 261244 AAA
TAFLYH
TAF AMD
KLYH 261244Z 2613/2712 00000KT 2SM -RA BR OVC006
     FM261500 21006KT P6SM OVC015
     FM261800 21012G20KT P6SM BKN050
     FM270400 30010KT P6SM OVC050
     FM270600 34009KT 5SM -SHRA OVC018=



000
FTUS41 KRNK 261244 AAA
TAFLYH
TAF AMD
KLYH 261244Z 2613/2712 00000KT 2SM -RA BR OVC006
     FM261500 21006KT P6SM OVC015
     FM261800 21012G20KT P6SM BKN050
     FM270400 30010KT P6SM OVC050
     FM270600 34009KT 5SM -SHRA OVC018=



000
FTUS41 KRNK 261120
TAFLYH
TAF
KLYH 261120Z 2612/2712 00000KT 6SM -SHRA OVC005
     FM261500 21006KT P6SM OVC015
     FM261800 21012G20KT P6SM BKN050
     FM270400 30010KT P6SM OVC050
     FM270600 34009KT 5SM -SHRA OVC018=



000
FTUS41 KRNK 261120
TAFLYH
TAF
KLYH 261120Z 2612/2712 00000KT 6SM -SHRA OVC005
     FM261500 21006KT P6SM OVC015
     FM261800 21012G20KT P6SM BKN050
     FM270400 30010KT P6SM OVC050
     FM270600 34009KT 5SM -SHRA OVC018=



000
FTUS41 KRNK 261120
TAFDAN
TAF
KDAN 261120Z 2612/2712 00000KT 5SM -RA BR OVC007
     FM261600 22008G18KT P6SM OVC025
     FM261900 22012G20KT P6SM BKN050
     FM270400 30008G18KT P6SM OVC040
     FM270700 35009KT 5SM -SHRA OVC018=



000
FTUS41 KRNK 261120
TAFDAN
TAF
KDAN 261120Z 2612/2712 00000KT 5SM -RA BR OVC007
     FM261600 22008G18KT P6SM OVC025
     FM261900 22012G20KT P6SM BKN050
     FM270400 30008G18KT P6SM OVC040
     FM270700 35009KT 5SM -SHRA OVC018=



000
FTUS41 KRNK 261120
TAFLWB
TAF
KLWB 261120Z 2612/2712 00000KT P6SM SCT022 OVC045
     FM261600 23010G20KT P6SM OVC050
     FM262200 25008KT 6SM -SHRA OVC040
     FM270100 31010KT 4SM -SHRA OVC015
     FM270500 30008KT 3SM BR OVC008=



000
FTUS41 KRNK 261120
TAFBLF
TAF
KBLF 261120Z 2612/2712 17009KT P6SM SCT022 BKN060
     FM261500 24015G25KT P6SM BKN050
     FM262100 26010G22KT 6SM -SHRA OVC040
     FM270100 31010G18KT 4SM -SHRA OVC015
     FM270600 33009KT 3SM -RA BR OVC005=



000
FTUS41 KRNK 261120
TAFROA
TAF
KROA 261120Z 2612/2712 00000KT P6SM VCSH BKN025
      TEMPO 2612/2614 SCT025 BKN045
     FM261500 VRB03KT P6SM OVC040
     FM261800 22010G18KT P6SM SCT050
     FM270300 30012G22KT P6SM OVC050
     FM270600 31008KT 5SM -RA OVC020=



000
FTUS41 KRNK 261120
TAFLWB
TAF
KLWB 261120Z 2612/2712 00000KT P6SM SCT022 OVC045
     FM261600 23010G20KT P6SM OVC050
     FM262200 25008KT 6SM -SHRA OVC040
     FM270100 31010KT 4SM -SHRA OVC015
     FM270500 30008KT 3SM BR OVC008=



000
FTUS41 KRNK 261120
TAFROA
TAF
KROA 261120Z 2612/2712 00000KT P6SM VCSH BKN025
      TEMPO 2612/2614 SCT025 BKN045
     FM261500 VRB03KT P6SM OVC040
     FM261800 22010G18KT P6SM SCT050
     FM270300 30012G22KT P6SM OVC050
     FM270600 31008KT 5SM -RA OVC020=



000
FTUS41 KRNK 261044 AAC
TAFROA
TAF AMD
KROA 261044Z 2611/2706 00000KT P6SM VCSH BKN025
      TEMPO 2611/2612 SCT025
     FM261500 VRB03KT P6SM OVC040
     FM261800 22010G18KT P6SM SCT050
     FM270300 30012G22KT P6SM OVC050=



000
FTUS41 KRNK 261044 AAC
TAFROA
TAF AMD
KROA 261044Z 2611/2706 00000KT P6SM VCSH BKN025
      TEMPO 2611/2612 SCT025
     FM261500 VRB03KT P6SM OVC040
     FM261800 22010G18KT P6SM SCT050
     FM270300 30012G22KT P6SM OVC050=



000
FTUS41 KRNK 261044 AAC
TAFROA
TAF AMD
KROA 261044Z 2611/2706 00000KT P6SM VCSH BKN025
      TEMPO 2611/2612 SCT025
     FM261500 VRB03KT P6SM OVC040
     FM261800 22010G18KT P6SM SCT050
     FM270300 30012G22KT P6SM OVC050=



000
FTUS41 KRNK 261044 AAC
TAFROA
TAF AMD
KROA 261044Z 2611/2706 00000KT P6SM VCSH BKN025
      TEMPO 2611/2612 SCT025
     FM261500 VRB03KT P6SM OVC040
     FM261800 22010G18KT P6SM SCT050
     FM270300 30012G22KT P6SM OVC050=



000
FTUS41 KRNK 260906 AAB
TAFLYH
TAF AMD
KLYH 260906Z 2609/2706 00000KT P6SM OVC009
     FM261000 VRB03KT 4SM -RA BR SCT003 OVC006
     FM261500 21006KT 6SM BR OVC015
     FM261800 21012G20KT P6SM BKN050
     FM270400 30010KT P6SM OVC050=



000
FTUS41 KRNK 260906 AAB
TAFLYH
TAF AMD
KLYH 260906Z 2609/2706 00000KT P6SM OVC009
     FM261000 VRB03KT 4SM -RA BR SCT003 OVC006
     FM261500 21006KT 6SM BR OVC015
     FM261800 21012G20KT P6SM BKN050
     FM270400 30010KT P6SM OVC050=



000
FTUS41 KRNK 260905 AAC
TAFBLF
TAF AMD
KBLF 260905Z 2609/2706 17010G18KT P6SM SCT022 BKN060
     FM261500 24015G25KT P6SM OVC025
     FM262100 25010G22KT 6SM -SHRA OVC040
     FM270100 31010G18KT 4SM -SHRA OVC015=



000
FTUS41 KRNK 260903 AAB
TAFROA
TAF AMD
KROA 260903Z 2609/2706 00000KT P6SM OVC012
     FM261000 16003KT 4SM -RA BR OVC006
     FM261500 VRB03KT P6SM OVC015
     FM261800 22010G18KT P6SM SCT050
     FM270300 30012G22KT P6SM OVC050=



000
FTUS41 KRNK 260903 AAB
TAFROA
TAF AMD
KROA 260903Z 2609/2706 00000KT P6SM OVC012
     FM261000 16003KT 4SM -RA BR OVC006
     FM261500 VRB03KT P6SM OVC015
     FM261800 22010G18KT P6SM SCT050
     FM270300 30012G22KT P6SM OVC050=



000
FTUS41 KRNK 260821 AAB
TAFLWB
TAF AMD
KLWB 260821Z 2608/2706 05004KT P6SM OVC022 WS019/20034KT
     FM261000 00000KT P6SM OVC006
     FM261300 22006KT P6SM BKN025
     FM261600 23012G22KT P6SM OVC050
     FM262200 25008KT 6SM -SHRA OVC040
     FM270100 30010KT 4SM -SHRA OVC015=



000
FTUS41 KRNK 260821 AAB
TAFLWB
TAF AMD
KLWB 260821Z 2608/2706 05004KT P6SM OVC022 WS019/20034KT
     FM261000 00000KT P6SM OVC006
     FM261300 22006KT P6SM BKN025
     FM261600 23012G22KT P6SM OVC050
     FM262200 25008KT 6SM -SHRA OVC040
     FM270100 30010KT 4SM -SHRA OVC015=



000
FTUS41 KRNK 260821 AAB
TAFBLF
TAF AMD
KBLF 260821Z 2608/2706 19012G20KT P6SM OVC022
     FM260900 19006KT P6SM OVC006
     FM261500 24015G25KT P6SM OVC025
     FM262100 25010G22KT 6SM -SHRA OVC040
     FM270100 31010G18KT 4SM -SHRA OVC015=



000
FTUS41 KRNK 260821 AAB
TAFLWB
TAF AMD
KLWB 260821Z 2608/2706 05004KT P6SM OVC022 WS019/20034KT
     FM261000 00000KT P6SM OVC006
     FM261300 22006KT P6SM BKN025
     FM261600 23012G22KT P6SM OVC050
     FM262200 25008KT 6SM -SHRA OVC040
     FM270100 30010KT 4SM -SHRA OVC015=



000
FTUS41 KRNK 260821 AAB
TAFLWB
TAF AMD
KLWB 260821Z 2608/2706 05004KT P6SM OVC022 WS019/20034KT
     FM261000 00000KT P6SM OVC006
     FM261300 22006KT P6SM BKN025
     FM261600 23012G22KT P6SM OVC050
     FM262200 25008KT 6SM -SHRA OVC040
     FM270100 30010KT 4SM -SHRA OVC015=



000
FTUS41 KRNK 260820 AAB
TAFDAN
TAF AMD
KDAN 260820Z 2608/2706 04003KT P6SM OVC009
     FM260900 09003KT 4SM -RA BR OVC006
     FM261600 22008G18KT 6SM BR OVC025
     FM261800 22012G20KT P6SM BKN050
     FM270400 30008G18KT P6SM OVC040=



000
FTUS41 KRNK 260820 AAB
TAFDAN
TAF AMD
KDAN 260820Z 2608/2706 04003KT P6SM OVC009
     FM260900 09003KT 4SM -RA BR OVC006
     FM261600 22008G18KT 6SM BR OVC025
     FM261800 22012G20KT P6SM BKN050
     FM270400 30008G18KT P6SM OVC040=



000
FTUS41 KRNK 260820 AAB
TAFDAN
TAF AMD
KDAN 260820Z 2608/2706 04003KT P6SM OVC009
     FM260900 09003KT 4SM -RA BR OVC006
     FM261600 22008G18KT 6SM BR OVC025
     FM261800 22012G20KT P6SM BKN050
     FM270400 30008G18KT P6SM OVC040=



000
FTUS41 KRNK 260818 AAA
TAFROA
TAF AMD
KROA 260818Z 2608/2706 VRB03KT P6SM -RA SCT003 OVC018
     FM260900 16003KT 4SM -RA BR OVC006
     FM261500 VRB03KT P6SM OVC015
     FM261800 22010G18KT P6SM SCT050
     FM270300 30012G22KT P6SM OVC050=



000
FTUS41 KRNK 260818 AAA
TAFROA
TAF AMD
KROA 260818Z 2608/2706 VRB03KT P6SM -RA SCT003 OVC018
     FM260900 16003KT 4SM -RA BR OVC006
     FM261500 VRB03KT P6SM OVC015
     FM261800 22010G18KT P6SM SCT050
     FM270300 30012G22KT P6SM OVC050=



000
FTUS41 KRNK 260818 AAA
TAFROA
TAF AMD
KROA 260818Z 2608/2706 VRB03KT P6SM -RA SCT003 OVC018
     FM260900 16003KT 4SM -RA BR OVC006
     FM261500 VRB03KT P6SM OVC015
     FM261800 22010G18KT P6SM SCT050
     FM270300 30012G22KT P6SM OVC050=



000
FTUS41 KRNK 260818 AAA
TAFROA
TAF AMD
KROA 260818Z 2608/2706 VRB03KT P6SM -RA SCT003 OVC018
     FM260900 16003KT 4SM -RA BR OVC006
     FM261500 VRB03KT P6SM OVC015
     FM261800 22010G18KT P6SM SCT050
     FM270300 30012G22KT P6SM OVC050=



000
FTUS41 KRNK 260708 AAA
TAFLWB
TAF AMD
KLWB 260708Z 2607/2706 02003KT P6SM SCT003 BKN060 WS019/20034KT
     FM261000 00000KT P6SM OVC006
     FM261300 22006KT P6SM BKN025
     FM261600 23012G22KT P6SM OVC050
     FM262200 25008KT 6SM -SHRA OVC040
     FM270100 30010KT 4SM -SHRA OVC015=



000
FTUS41 KRNK 260708 AAA
TAFLWB
TAF AMD
KLWB 260708Z 2607/2706 02003KT P6SM SCT003 BKN060 WS019/20034KT
     FM261000 00000KT P6SM OVC006
     FM261300 22006KT P6SM BKN025
     FM261600 23012G22KT P6SM OVC050
     FM262200 25008KT 6SM -SHRA OVC040
     FM270100 30010KT 4SM -SHRA OVC015=



000
FTUS41 KRNK 260707 AAA
TAFDAN
TAF AMD
KDAN 260707Z 2607/2706 04003KT P6SM OVC012
     FM260900 09003KT 4SM -RADZ BR OVC006
     FM261600 22008G18KT 6SM BR OVC025
     FM261800 22012G20KT P6SM BKN050
     FM270400 30008G18KT P6SM OVC040=



000
FTUS41 KRNK 260707 AAA
TAFBLF
TAF AMD
KBLF 260707Z 2607/2706 17012G20KT P6SM OVC050
     FM260900 19006KT P6SM OVC006
     FM261500 24015G25KT P6SM OVC025
     FM262100 25010G22KT 6SM -SHRA OVC040
     FM270100 31010G18KT 4SM -SHRA OVC015=



000
FTUS41 KRNK 260707 AAA
TAFDAN
TAF AMD
KDAN 260707Z 2607/2706 04003KT P6SM OVC012
     FM260900 09003KT 4SM -RADZ BR OVC006
     FM261600 22008G18KT 6SM BR OVC025
     FM261800 22012G20KT P6SM BKN050
     FM270400 30008G18KT P6SM OVC040=



000
FTUS41 KRNK 260707 AAA
TAFDAN
TAF AMD
KDAN 260707Z 2607/2706 04003KT P6SM OVC012
     FM260900 09003KT 4SM -RADZ BR OVC006
     FM261600 22008G18KT 6SM BR OVC025
     FM261800 22012G20KT P6SM BKN050
     FM270400 30008G18KT P6SM OVC040=



000
FTUS41 KRNK 260707 AAA
TAFDAN
TAF AMD
KDAN 260707Z 2607/2706 04003KT P6SM OVC012
     FM260900 09003KT 4SM -RADZ BR OVC006
     FM261600 22008G18KT 6SM BR OVC025
     FM261800 22012G20KT P6SM BKN050
     FM270400 30008G18KT P6SM OVC040=



000
FTUS41 KRNK 260707 AAA
TAFBLF
TAF AMD
KBLF 260707Z 2607/2706 17012G20KT P6SM OVC050
     FM260900 19006KT P6SM OVC006
     FM261500 24015G25KT P6SM OVC025
     FM262100 25010G22KT 6SM -SHRA OVC040
     FM270100 31010G18KT 4SM -SHRA OVC015=



000
FTUS41 KRNK 260707 AAA
TAFBLF
TAF AMD
KBLF 260707Z 2607/2706 17012G20KT P6SM OVC050
     FM260900 19006KT P6SM OVC006
     FM261500 24015G25KT P6SM OVC025
     FM262100 25010G22KT 6SM -SHRA OVC040
     FM270100 31010G18KT 4SM -SHRA OVC015=



000
FTUS41 KRNK 260706 AAA
TAFLYH
TAF AMD
KLYH 260706Z 2607/2706 20004KT P6SM -RA OVC015
     FM260900 VRB03KT 4SM -RADZ BR SCT003 OVC006
     FM261500 21006KT 6SM BR OVC015
     FM261800 21012G20KT P6SM BKN050
     FM270400 30010KT P6SM OVC050=



000
FTUS41 KRNK 260706 AAA
TAFLYH
TAF AMD
KLYH 260706Z 2607/2706 20004KT P6SM -RA OVC015
     FM260900 VRB03KT 4SM -RADZ BR SCT003 OVC006
     FM261500 21006KT 6SM BR OVC015
     FM261800 21012G20KT P6SM BKN050
     FM270400 30010KT P6SM OVC050=



000
FTUS41 KRNK 260706 AAA
TAFLYH
TAF AMD
KLYH 260706Z 2607/2706 20004KT P6SM -RA OVC015
     FM260900 VRB03KT 4SM -RADZ BR SCT003 OVC006
     FM261500 21006KT 6SM BR OVC015
     FM261800 21012G20KT P6SM BKN050
     FM270400 30010KT P6SM OVC050=



000
FTUS41 KRNK 260706 AAA
TAFLYH
TAF AMD
KLYH 260706Z 2607/2706 20004KT P6SM -RA OVC015
     FM260900 VRB03KT 4SM -RADZ BR SCT003 OVC006
     FM261500 21006KT 6SM BR OVC015
     FM261800 21012G20KT P6SM BKN050
     FM270400 30010KT P6SM OVC050=



000
FTUS41 KRNK 260540
TAFLWB
TAF
KLWB 260540Z 2606/2706 00000KT P6SM SCT003 BKN025 WS019/20034KT
     FM261000 00000KT P6SM OVC006
     FM261300 22006KT P6SM BKN025
     FM261600 23012G22KT P6SM OVC050
     FM262200 25008KT 6SM -SHRA OVC040
     FM270100 30010KT 4SM -SHRA OVC015=



000
FTUS41 KRNK 260540
TAFLYH
TAF
KLYH 260540Z 2606/2706 00000KT 6SM -RA BR OVC022
     FM260900 VRB03KT 4SM -RADZ BR SCT003 OVC006
     FM261500 21006KT 6SM BR OVC015
     FM261800 21012G20KT P6SM BKN050
     FM270400 30010KT P6SM OVC050=



000
FTUS41 KRNK 260540
TAFROA
TAF
KROA 260540Z 2606/2706 VRB03KT P6SM -RA SCT003 OVC022
     FM260900 16003KT 4SM -RA BR OVC006
     FM261500 VRB03KT P6SM OVC015
     FM261800 22010G18KT P6SM SCT050
     FM270300 30012G22KT P6SM OVC050=



000
FTUS41 KRNK 260540
TAFDAN
TAF
KDAN 260540Z 2606/2706 04003KT P6SM -RA OVC022
     FM260900 09003KT 4SM -RADZ BR OVC006
     FM261600 22008G18KT 6SM BR OVC025
     FM261800 22012G20KT P6SM BKN050
     FM270400 30008G18KT P6SM OVC040=



000
FTUS41 KRNK 260540
TAFLYH
TAF
KLYH 260540Z 2606/2706 00000KT 6SM -RA BR OVC022
     FM260900 VRB03KT 4SM -RADZ BR SCT003 OVC006
     FM261500 21006KT 6SM BR OVC015
     FM261800 21012G20KT P6SM BKN050
     FM270400 30010KT P6SM OVC050=



000
FTUS41 KRNK 260540
TAFROA
TAF
KROA 260540Z 2606/2706 VRB03KT P6SM -RA SCT003 OVC022
     FM260900 16003KT 4SM -RA BR OVC006
     FM261500 VRB03KT P6SM OVC015
     FM261800 22010G18KT P6SM SCT050
     FM270300 30012G22KT P6SM OVC050=



000
FTUS41 KRNK 260540
TAFBLF
TAF
KBLF 260540Z 2606/2706 16004KT P6SM OVC050 WS012/20034KT
     FM260900 19006KT P6SM OVC006
     FM261500 24015G25KT P6SM OVC025
     FM262100 25010G22KT 6SM -SHRA OVC040
     FM270100 31010G18KT 4SM -SHRA OVC015=



000
FTUS41 KRNK 260540
TAFLYH
TAF
KLYH 260540Z 2606/2706 00000KT 6SM -RA BR OVC022
     FM260900 VRB03KT 4SM -RADZ BR SCT003 OVC006
     FM261500 21006KT 6SM BR OVC015
     FM261800 21012G20KT P6SM BKN050
     FM270400 30010KT P6SM OVC050=



000
FTUS41 KRNK 260540
TAFBLF
TAF
KBLF 260540Z 2606/2706 16004KT P6SM OVC050 WS012/20034KT
     FM260900 19006KT P6SM OVC006
     FM261500 24015G25KT P6SM OVC025
     FM262100 25010G22KT 6SM -SHRA OVC040
     FM270100 31010G18KT 4SM -SHRA OVC015=



000
FTUS41 KRNK 260540
TAFBLF
TAF
KBLF 260540Z 2606/2706 16004KT P6SM OVC050 WS012/20034KT
     FM260900 19006KT P6SM OVC006
     FM261500 24015G25KT P6SM OVC025
     FM262100 25010G22KT 6SM -SHRA OVC040
     FM270100 31010G18KT 4SM -SHRA OVC015=



000
FTUS41 KRNK 260540
TAFBLF
TAF
KBLF 260540Z 2606/2706 16004KT P6SM OVC050 WS012/20034KT
     FM260900 19006KT P6SM OVC006
     FM261500 24015G25KT P6SM OVC025
     FM262100 25010G22KT 6SM -SHRA OVC040
     FM270100 31010G18KT 4SM -SHRA OVC015=



000
FTUS41 KRNK 260540
TAFROA
TAF
KROA 260540Z 2606/2706 VRB03KT P6SM -RA SCT003 OVC022
     FM260900 16003KT 4SM -RA BR OVC006
     FM261500 VRB03KT P6SM OVC015
     FM261800 22010G18KT P6SM SCT050
     FM270300 30012G22KT P6SM OVC050=



000
FTUS41 KRNK 260540
TAFROA
TAF
KROA 260540Z 2606/2706 VRB03KT P6SM -RA SCT003 OVC022
     FM260900 16003KT 4SM -RA BR OVC006
     FM261500 VRB03KT P6SM OVC015
     FM261800 22010G18KT P6SM SCT050
     FM270300 30012G22KT P6SM OVC050=



000
FTUS41 KRNK 260540
TAFLWB
TAF
KLWB 260540Z 2606/2706 00000KT P6SM SCT003 BKN025 WS019/20034KT
     FM261000 00000KT P6SM OVC006
     FM261300 22006KT P6SM BKN025
     FM261600 23012G22KT P6SM OVC050
     FM262200 25008KT 6SM -SHRA OVC040
     FM270100 30010KT 4SM -SHRA OVC015=



000
FTUS41 KRNK 260540
TAFDAN
TAF
KDAN 260540Z 2606/2706 04003KT P6SM -RA OVC022
     FM260900 09003KT 4SM -RADZ BR OVC006
     FM261600 22008G18KT 6SM BR OVC025
     FM261800 22012G20KT P6SM BKN050
     FM270400 30008G18KT P6SM OVC040=



000
FTUS41 KRNK 260540
TAFLWB
TAF
KLWB 260540Z 2606/2706 00000KT P6SM SCT003 BKN025 WS019/20034KT
     FM261000 00000KT P6SM OVC006
     FM261300 22006KT P6SM BKN025
     FM261600 23012G22KT P6SM OVC050
     FM262200 25008KT 6SM -SHRA OVC040
     FM270100 30010KT 4SM -SHRA OVC015=



000
FTUS41 KRNK 260540
TAFDAN
TAF
KDAN 260540Z 2606/2706 04003KT P6SM -RA OVC022
     FM260900 09003KT 4SM -RADZ BR OVC006
     FM261600 22008G18KT 6SM BR OVC025
     FM261800 22012G20KT P6SM BKN050
     FM270400 30008G18KT P6SM OVC040=



000
FTUS41 KRNK 260540
TAFLWB
TAF
KLWB 260540Z 2606/2706 00000KT P6SM SCT003 BKN025 WS019/20034KT
     FM261000 00000KT P6SM OVC006
     FM261300 22006KT P6SM BKN025
     FM261600 23012G22KT P6SM OVC050
     FM262200 25008KT 6SM -SHRA OVC040
     FM270100 30010KT 4SM -SHRA OVC015=



000
FTUS41 KRNK 260540
TAFLYH
TAF
KLYH 260540Z 2606/2706 00000KT 6SM -RA BR OVC022
     FM260900 VRB03KT 4SM -RADZ BR SCT003 OVC006
     FM261500 21006KT 6SM BR OVC015
     FM261800 21012G20KT P6SM BKN050
     FM270400 30010KT P6SM OVC050=



000
FTUS41 KRNK 260540
TAFDAN
TAF
KDAN 260540Z 2606/2706 04003KT P6SM -RA OVC022
     FM260900 09003KT 4SM -RADZ BR OVC006
     FM261600 22008G18KT 6SM BR OVC025
     FM261800 22012G20KT P6SM BKN050
     FM270400 30008G18KT P6SM OVC040=



000
FTUS41 KRNK 260433 AAA
TAFDAN
TAF AMD
KDAN 260433Z 2605/2624 03003KT P6SM OVC015
     FM260900 09003KT 5SM -RADZ BR SCT008 OVC015
     FM261500 VRB03KT 6SM BR OVC030
     FM261800 23006KT P6SM BKN050=



000
FTUS41 KRNK 260403 AAA
TAFBLF
TAF AMD
KBLF 260403Z 2604/2624 16005KT P6SM BKN050
     FM261200 22010KT P6SM BKN040
     FM261600 24015G25KT P6SM VCSH BKN080
     FM262200 26012G25KT 6SM -SHRA OVC040=



000
FTUS41 KRNK 260403 AAA
TAFBLF
TAF AMD
KBLF 260403Z 2604/2624 16005KT P6SM BKN050
     FM261200 22010KT P6SM BKN040
     FM261600 24015G25KT P6SM VCSH BKN080
     FM262200 26012G25KT 6SM -SHRA OVC040=



000
FTUS41 KRNK 260403 AAA
TAFBLF
TAF AMD
KBLF 260403Z 2604/2624 16005KT P6SM BKN050
     FM261200 22010KT P6SM BKN040
     FM261600 24015G25KT P6SM VCSH BKN080
     FM262200 26012G25KT 6SM -SHRA OVC040=



000
FTUS41 KRNK 260403 AAA
TAFBLF
TAF AMD
KBLF 260403Z 2604/2624 16005KT P6SM BKN050
     FM261200 22010KT P6SM BKN040
     FM261600 24015G25KT P6SM VCSH BKN080
     FM262200 26012G25KT 6SM -SHRA OVC040=



000
FTUS41 KRNK 260238 AAA
TAFLYH
TAF AMD
KLYH 260238Z 2603/2624 00000KT P6SM SCT025 BKN060
      TEMPO 2603/2606 BKN025
     FM260600 02003KT 6SM -RADZ BR OVC015
     FM260900 09003KT 4SM -RADZ BR SCT003 OVC008
     FM261500 VRB03KT 6SM BR OVC015
     FM261900 21006KT P6SM BKN050=



000
FTUS41 KRNK 260238 AAA
TAFLYH
TAF AMD
KLYH 260238Z 2603/2624 00000KT P6SM SCT025 BKN060
      TEMPO 2603/2606 BKN025
     FM260600 02003KT 6SM -RADZ BR OVC015
     FM260900 09003KT 4SM -RADZ BR SCT003 OVC008
     FM261500 VRB03KT 6SM BR OVC015
     FM261900 21006KT P6SM BKN050=



000
FTUS41 KRNK 260238 AAA
TAFLYH
TAF AMD
KLYH 260238Z 2603/2624 00000KT P6SM SCT025 BKN060
      TEMPO 2603/2606 BKN025
     FM260600 02003KT 6SM -RADZ BR OVC015
     FM260900 09003KT 4SM -RADZ BR SCT003 OVC008
     FM261500 VRB03KT 6SM BR OVC015
     FM261900 21006KT P6SM BKN050=



000
FTUS41 KRNK 260238 AAA
TAFLYH
TAF AMD
KLYH 260238Z 2603/2624 00000KT P6SM SCT025 BKN060
      TEMPO 2603/2606 BKN025
     FM260600 02003KT 6SM -RADZ BR OVC015
     FM260900 09003KT 4SM -RADZ BR SCT003 OVC008
     FM261500 VRB03KT 6SM BR OVC015
     FM261900 21006KT P6SM BKN050=



000
FTUS41 KRNK 260235 AAA
TAFLWB
TAF AMD
KLWB 260235Z 2603/2624 VRB03KT P6SM BKN060
     FM260600 00000KT P6SM SCT003 OVC025
     FM261300 20006KT P6SM BKN040
     FM261800 22010G20KT P6SM VCSH BKN080
     FM262200 24008G18KT 6SM -SHRA OVC040=



000
FTUS41 KRNK 260235 AAA
TAFLWB
TAF AMD
KLWB 260235Z 2603/2624 VRB03KT P6SM BKN060
     FM260600 00000KT P6SM SCT003 OVC025
     FM261300 20006KT P6SM BKN040
     FM261800 22010G20KT P6SM VCSH BKN080
     FM262200 24008G18KT 6SM -SHRA OVC040=



000
FTUS41 KRNK 260131 AAA
TAFROA
TAF AMD
KROA 260131Z 2602/2624 12006KT P6SM OVC025
     FM260600 09003KT 4SM -RADZ BR SCT003 OVC012
     FM261400 VRB03KT 6SM BR OVC025
     FM261900 20006KT P6SM SCT050=



000
FTUS41 KRNK 260131 AAA
TAFROA
TAF AMD
KROA 260131Z 2602/2624 12006KT P6SM OVC025
     FM260600 09003KT 4SM -RADZ BR SCT003 OVC012
     FM261400 VRB03KT 6SM BR OVC025
     FM261900 20006KT P6SM SCT050=



000
FTUS41 KRNK 260131 AAA
TAFROA
TAF AMD
KROA 260131Z 2602/2624 12006KT P6SM OVC025
     FM260600 09003KT 4SM -RADZ BR SCT003 OVC012
     FM261400 VRB03KT 6SM BR OVC025
     FM261900 20006KT P6SM SCT050=



000
FTUS41 KRNK 260131 AAA
TAFROA
TAF AMD
KROA 260131Z 2602/2624 12006KT P6SM OVC025
     FM260600 09003KT 4SM -RADZ BR SCT003 OVC012
     FM261400 VRB03KT 6SM BR OVC025
     FM261900 20006KT P6SM SCT050=



000
FTUS41 KRNK 252320
TAFROA
TAF
KROA 252320Z 2600/2624 12008KT P6SM SCT035
     FM260300 09003KT 6SM BR OVC025
     FM260800 09003KT 4SM -RADZ BR SCT003 OVC012
     FM261400 VRB03KT 6SM BR OVC025
     FM261900 20006KT P6SM SCT050=



000
FTUS41 KRNK 252320
TAFLYH
TAF
KLYH 252320Z 2600/2624 00000KT P6SM OVC025
     FM260600 02003KT 6SM -RADZ BR OVC015
     FM260900 09003KT 4SM -RADZ BR SCT003 OVC008
     FM261500 VRB03KT 6SM BR OVC015
     FM261900 21006KT P6SM BKN050=



000
FTUS41 KRNK 252320
TAFROA
TAF
KROA 252320Z 2600/2624 12008KT P6SM SCT035
     FM260300 09003KT 6SM BR OVC025
     FM260800 09003KT 4SM -RADZ BR SCT003 OVC012
     FM261400 VRB03KT 6SM BR OVC025
     FM261900 20006KT P6SM SCT050=



000
FTUS41 KRNK 252320
TAFROA
TAF
KROA 252320Z 2600/2624 12008KT P6SM SCT035
     FM260300 09003KT 6SM BR OVC025
     FM260800 09003KT 4SM -RADZ BR SCT003 OVC012
     FM261400 VRB03KT 6SM BR OVC025
     FM261900 20006KT P6SM SCT050=



000
FTUS41 KRNK 252320
TAFDAN
TAF
KDAN 252320Z 2600/2624 06003KT P6SM BKN035
     FM260500 03003KT 6SM -RADZ BR OVC025
     FM260900 09003KT 5SM -RADZ BR SCT008 OVC015
     FM261500 VRB03KT 6SM BR OVC030
     FM261800 23006KT P6SM BKN050=



000
FTUS41 KRNK 252320
TAFDAN
TAF
KDAN 252320Z 2600/2624 06003KT P6SM BKN035
     FM260500 03003KT 6SM -RADZ BR OVC025
     FM260900 09003KT 5SM -RADZ BR SCT008 OVC015
     FM261500 VRB03KT 6SM BR OVC030
     FM261800 23006KT P6SM BKN050=



000
FTUS41 KRNK 252320
TAFBLF
TAF
KBLF 252320Z 2600/2624 18008KT P6SM SCT080
     FM260400 16005KT P6SM OVC025
     FM261200 22010KT P6SM BKN040
     FM261600 24015G25KT P6SM VCSH BKN080
     FM262200 26012G25KT 6SM -SHRA OVC040=



000
FTUS41 KRNK 252320
TAFBLF
TAF
KBLF 252320Z 2600/2624 18008KT P6SM SCT080
     FM260400 16005KT P6SM OVC025
     FM261200 22010KT P6SM BKN040
     FM261600 24015G25KT P6SM VCSH BKN080
     FM262200 26012G25KT 6SM -SHRA OVC040=



000
FTUS41 KRNK 252320
TAFLWB
TAF
KLWB 252320Z 2600/2624 18006KT P6SM SCT080
     FM260300 VRB03KT 6SM BR OVC030
     FM260700 00000KT 3SM BR SCT003 OVC025
     FM261300 20006KT P6SM BKN040
     FM261800 22010G20KT P6SM VCSH BKN080
     FM262200 24008G18KT 6SM -SHRA OVC040=



000
FTUS41 KRNK 252320
TAFLYH
TAF
KLYH 252320Z 2600/2624 00000KT P6SM OVC025
     FM260600 02003KT 6SM -RADZ BR OVC015
     FM260900 09003KT 4SM -RADZ BR SCT003 OVC008
     FM261500 VRB03KT 6SM BR OVC015
     FM261900 21006KT P6SM BKN050=



000
FTUS41 KRNK 252320
TAFLWB
TAF
KLWB 252320Z 2600/2624 18006KT P6SM SCT080
     FM260300 VRB03KT 6SM BR OVC030
     FM260700 00000KT 3SM BR SCT003 OVC025
     FM261300 20006KT P6SM BKN040
     FM261800 22010G20KT P6SM VCSH BKN080
     FM262200 24008G18KT 6SM -SHRA OVC040=



000
FTUS41 KRNK 252320
TAFROA
TAF
KROA 252320Z 2600/2624 12008KT P6SM SCT035
     FM260300 09003KT 6SM BR OVC025
     FM260800 09003KT 4SM -RADZ BR SCT003 OVC012
     FM261400 VRB03KT 6SM BR OVC025
     FM261900 20006KT P6SM SCT050=



000
FTUS41 KRNK 252320
TAFBLF
TAF
KBLF 252320Z 2600/2624 18008KT P6SM SCT080
     FM260400 16005KT P6SM OVC025
     FM261200 22010KT P6SM BKN040
     FM261600 24015G25KT P6SM VCSH BKN080
     FM262200 26012G25KT 6SM -SHRA OVC040=



000
FTUS41 KRNK 252320
TAFLYH
TAF
KLYH 252320Z 2600/2624 00000KT P6SM OVC025
     FM260600 02003KT 6SM -RADZ BR OVC015
     FM260900 09003KT 4SM -RADZ BR SCT003 OVC008
     FM261500 VRB03KT 6SM BR OVC015
     FM261900 21006KT P6SM BKN050=



000
FTUS41 KRNK 252320
TAFLWB
TAF
KLWB 252320Z 2600/2624 18006KT P6SM SCT080
     FM260300 VRB03KT 6SM BR OVC030
     FM260700 00000KT 3SM BR SCT003 OVC025
     FM261300 20006KT P6SM BKN040
     FM261800 22010G20KT P6SM VCSH BKN080
     FM262200 24008G18KT 6SM -SHRA OVC040=



000
FTUS41 KRNK 252320
TAFLWB
TAF
KLWB 252320Z 2600/2624 18006KT P6SM SCT080
     FM260300 VRB03KT 6SM BR OVC030
     FM260700 00000KT 3SM BR SCT003 OVC025
     FM261300 20006KT P6SM BKN040
     FM261800 22010G20KT P6SM VCSH BKN080
     FM262200 24008G18KT 6SM -SHRA OVC040=



000
FTUS41 KRNK 252320
TAFDAN
TAF
KDAN 252320Z 2600/2624 06003KT P6SM BKN035
     FM260500 03003KT 6SM -RADZ BR OVC025
     FM260900 09003KT 5SM -RADZ BR SCT008 OVC015
     FM261500 VRB03KT 6SM BR OVC030
     FM261800 23006KT P6SM BKN050=



000
FTUS41 KRNK 252320
TAFDAN
TAF
KDAN 252320Z 2600/2624 06003KT P6SM BKN035
     FM260500 03003KT 6SM -RADZ BR OVC025
     FM260900 09003KT 5SM -RADZ BR SCT008 OVC015
     FM261500 VRB03KT 6SM BR OVC030
     FM261800 23006KT P6SM BKN050=



000
FTUS41 KRNK 252320
TAFBLF
TAF
KBLF 252320Z 2600/2624 18008KT P6SM SCT080
     FM260400 16005KT P6SM OVC025
     FM261200 22010KT P6SM BKN040
     FM261600 24015G25KT P6SM VCSH BKN080
     FM262200 26012G25KT 6SM -SHRA OVC040=



000
FTUS41 KRNK 252320
TAFLYH
TAF
KLYH 252320Z 2600/2624 00000KT P6SM OVC025
     FM260600 02003KT 6SM -RADZ BR OVC015
     FM260900 09003KT 4SM -RADZ BR SCT003 OVC008
     FM261500 VRB03KT 6SM BR OVC015
     FM261900 21006KT P6SM BKN050=



000
FTUS41 KRNK 251942 AAA
TAFLWB
TAF AMD
KLWB 251942Z 2520/2618 25006KT P6SM OVC035
     FM252300 20006KT P6SM OVC025
     FM260100 VRB03KT 4SM BR OVC008
     FM260500 VRB03KT 1SM BR OVC004
     FM261000 00000KT 1/2SM DZ OVC001
     FM261300 22005KT P6SM -RA SCT007 OVC015=



000
FTUS41 KRNK 251942 AAA
TAFLWB
TAF AMD
KLWB 251942Z 2520/2618 25006KT P6SM OVC035
     FM252300 20006KT P6SM OVC025
     FM260100 VRB03KT 4SM BR OVC008
     FM260500 VRB03KT 1SM BR OVC004
     FM261000 00000KT 1/2SM DZ OVC001
     FM261300 22005KT P6SM -RA SCT007 OVC015=



000
FTUS41 KRNK 251722
TAFLWB
TAF
KLWB 251722Z 2518/2618 25006KT P6SM OVC030
     FM252000 20006KT P6SM OVC025
     FM260100 VRB03KT 4SM BR OVC008
     FM260500 VRB03KT 1SM BR OVC004
     FM261000 00000KT 1/2SM DZ OVC001
     FM261300 22005KT P6SM -RA SCT007 OVC015=



000
FTUS41 KRNK 251722
TAFDAN
TAF
KDAN 251722Z 2518/2618 VRB03KT P6SM OVC020
     FM252000 08006KT P6SM OVC015
     FM260400 VRB03KT 4SM BR OVC009
     FM261500 22008KT P6SM OVC015
     FM261700 22010G17KT P6SM -SHRA OVC015=



000
FTUS41 KRNK 251722
TAFLYH
TAF
KLYH 251722Z 2518/2618 20006KT P6SM OVC021
     FM252200 04005KT P6SM OVC015
     FM260000 07003KT 3SM BR OVC008
     FM261400 21008KT P6SM OVC003
     FM261600 22010KT P6SM -SHRA SCT007 OVC015=



000
FTUS41 KRNK 251722
TAFBLF
TAF
KBLF 251722Z 2518/2618 17008G18KT P6SM BKN035
     FM252300 22008KT P6SM SCT012 OVC025
     FM260400 18006KT P6SM OVC008
     FM261200 18009G14KT P6SM BKN010
     FM261500 22005KT P6SM -RA SCT012 OVC025=



000
FTUS41 KRNK 251722
TAFROA
TAF
KROA 251722Z 2518/2618 12006KT P6SM VCSH SCT007 OVC022
     FM252100 13003KT P6SM OVC025
     FM260300 12003KT 3SM BR OVC009
     FM261500 22007KT P6SM -SHRA OVC015=



000
FTUS41 KRNK 251722
TAFROA
TAF
KROA 251722Z 2518/2618 12006KT P6SM VCSH SCT007 OVC022
     FM252100 13003KT P6SM OVC025
     FM260300 12003KT 3SM BR OVC009
     FM261500 22007KT P6SM -SHRA OVC015=



000
FTUS41 KRNK 251722
TAFBLF
TAF
KBLF 251722Z 2518/2618 17008G18KT P6SM BKN035
     FM252300 22008KT P6SM SCT012 OVC025
     FM260400 18006KT P6SM OVC008
     FM261200 18009G14KT P6SM BKN010
     FM261500 22005KT P6SM -RA SCT012 OVC025=



000
FTUS41 KRNK 251722
TAFROA
TAF
KROA 251722Z 2518/2618 12006KT P6SM VCSH SCT007 OVC022
     FM252100 13003KT P6SM OVC025
     FM260300 12003KT 3SM BR OVC009
     FM261500 22007KT P6SM -SHRA OVC015=



000
FTUS41 KRNK 251722
TAFLWB
TAF
KLWB 251722Z 2518/2618 25006KT P6SM OVC030
     FM252000 20006KT P6SM OVC025
     FM260100 VRB03KT 4SM BR OVC008
     FM260500 VRB03KT 1SM BR OVC004
     FM261000 00000KT 1/2SM DZ OVC001
     FM261300 22005KT P6SM -RA SCT007 OVC015=



000
FTUS41 KRNK 251722
TAFLYH
TAF
KLYH 251722Z 2518/2618 20006KT P6SM OVC021
     FM252200 04005KT P6SM OVC015
     FM260000 07003KT 3SM BR OVC008
     FM261400 21008KT P6SM OVC003
     FM261600 22010KT P6SM -SHRA SCT007 OVC015=



000
FTUS41 KRNK 251722
TAFDAN
TAF
KDAN 251722Z 2518/2618 VRB03KT P6SM OVC020
     FM252000 08006KT P6SM OVC015
     FM260400 VRB03KT 4SM BR OVC009
     FM261500 22008KT P6SM OVC015
     FM261700 22010G17KT P6SM -SHRA OVC015=



000
FTUS41 KRNK 251722
TAFLWB
TAF
KLWB 251722Z 2518/2618 25006KT P6SM OVC030
     FM252000 20006KT P6SM OVC025
     FM260100 VRB03KT 4SM BR OVC008
     FM260500 VRB03KT 1SM BR OVC004
     FM261000 00000KT 1/2SM DZ OVC001
     FM261300 22005KT P6SM -RA SCT007 OVC015=



000
FTUS41 KRNK 251722
TAFBLF
TAF
KBLF 251722Z 2518/2618 17008G18KT P6SM BKN035
     FM252300 22008KT P6SM SCT012 OVC025
     FM260400 18006KT P6SM OVC008
     FM261200 18009G14KT P6SM BKN010
     FM261500 22005KT P6SM -RA SCT012 OVC025=



000
FTUS41 KRNK 251722
TAFLYH
TAF
KLYH 251722Z 2518/2618 20006KT P6SM OVC021
     FM252200 04005KT P6SM OVC015
     FM260000 07003KT 3SM BR OVC008
     FM261400 21008KT P6SM OVC003
     FM261600 22010KT P6SM -SHRA SCT007 OVC015=



000
FTUS41 KRNK 251722
TAFDAN
TAF
KDAN 251722Z 2518/2618 VRB03KT P6SM OVC020
     FM252000 08006KT P6SM OVC015
     FM260400 VRB03KT 4SM BR OVC009
     FM261500 22008KT P6SM OVC015
     FM261700 22010G17KT P6SM -SHRA OVC015=



000
FTUS41 KRNK 251501 AAA
TAFBLF
TAF AMD
KBLF 251501Z 2515/2612 18010G18KT P6SM SCT035
     FM251600 21012G22KT P6SM BKN035
     FM252300 22008KT P6SM OVC020
     FM260400 18006KT P6SM OVC008=



000
FTUS41 KRNK 251501 AAA
TAFBLF
TAF AMD
KBLF 251501Z 2515/2612 18010G18KT P6SM SCT035
     FM251600 21012G22KT P6SM BKN035
     FM252300 22008KT P6SM OVC020
     FM260400 18006KT P6SM OVC008=



000
FTUS41 KRNK 251501 AAA
TAFBLF
TAF AMD
KBLF 251501Z 2515/2612 18010G18KT P6SM SCT035
     FM251600 21012G22KT P6SM BKN035
     FM252300 22008KT P6SM OVC020
     FM260400 18006KT P6SM OVC008=



000
FTUS41 KRNK 251129
TAFDAN
TAF
KDAN 251129Z 2512/2612 08006KT P6SM FEW009 OVC020
     FM251500 06004KT P6SM OVC015
     FM260000 VRB03KT 4SM BR OVC009=



000
FTUS41 KRNK 251129
TAFDAN
TAF
KDAN 251129Z 2512/2612 08006KT P6SM FEW009 OVC020
     FM251500 06004KT P6SM OVC015
     FM260000 VRB03KT 4SM BR OVC009=



000
FTUS41 KRNK 251129
TAFBLF
TAF
KBLF 251129Z 2512/2612 16010G18KT P6SM OVC015
     FM251600 21012G22KT P6SM BKN025
     FM252300 22008KT P6SM OVC020
     FM260400 18006KT P6SM OVC008=



000
FTUS41 KRNK 251129
TAFROA
TAF
KROA 251129Z 2512/2612 12008KT P6SM OVC025
     FM251500 14004KT 6SM -RA SCT007 OVC015
     FM252100 13003KT P6SM OVC022
     FM260300 12003KT 3SM BR OVC009=



000
FTUS41 KRNK 251129
TAFLYH
TAF
KLYH 251129Z 2512/2612 05006KT P6SM OVC018
     FM252100 04005KT P6SM OVC012
     FM260000 07003KT 3SM BR OVC008=



000
FTUS41 KRNK 251129
TAFDAN
TAF
KDAN 251129Z 2512/2612 08006KT P6SM FEW009 OVC020
     FM251500 06004KT P6SM OVC015
     FM260000 VRB03KT 4SM BR OVC009=



000
FTUS41 KRNK 251129
TAFLWB
TAF
KLWB 251129Z 2512/2612 07004KT P6SM OVC022
     FM251800 20006KT P6SM OVC025
     FM260100 VRB03KT 4SM BR OVC008
     FM260500 VRB03KT 1SM BR OVC004=



000
FTUS41 KRNK 251129
TAFBLF
TAF
KBLF 251129Z 2512/2612 16010G18KT P6SM OVC015
     FM251600 21012G22KT P6SM BKN025
     FM252300 22008KT P6SM OVC020
     FM260400 18006KT P6SM OVC008=



000
FTUS41 KRNK 251129
TAFLWB
TAF
KLWB 251129Z 2512/2612 07004KT P6SM OVC022
     FM251800 20006KT P6SM OVC025
     FM260100 VRB03KT 4SM BR OVC008
     FM260500 VRB03KT 1SM BR OVC004=



000
FTUS41 KRNK 251129
TAFBLF
TAF
KBLF 251129Z 2512/2612 16010G18KT P6SM OVC015
     FM251600 21012G22KT P6SM BKN025
     FM252300 22008KT P6SM OVC020
     FM260400 18006KT P6SM OVC008=



000
FTUS41 KRNK 251129
TAFROA
TAF
KROA 251129Z 2512/2612 12008KT P6SM OVC025
     FM251500 14004KT 6SM -RA SCT007 OVC015
     FM252100 13003KT P6SM OVC022
     FM260300 12003KT 3SM BR OVC009=



000
FTUS41 KRNK 251129
TAFLYH
TAF
KLYH 251129Z 2512/2612 05006KT P6SM OVC018
     FM252100 04005KT P6SM OVC012
     FM260000 07003KT 3SM BR OVC008=



000
FTUS41 KRNK 251129
TAFLWB
TAF
KLWB 251129Z 2512/2612 07004KT P6SM OVC022
     FM251800 20006KT P6SM OVC025
     FM260100 VRB03KT 4SM BR OVC008
     FM260500 VRB03KT 1SM BR OVC004=



000
FTUS41 KRNK 251129
TAFROA
TAF
KROA 251129Z 2512/2612 12008KT P6SM OVC025
     FM251500 14004KT 6SM -RA SCT007 OVC015
     FM252100 13003KT P6SM OVC022
     FM260300 12003KT 3SM BR OVC009=



000
FTUS41 KRNK 251129
TAFDAN
TAF
KDAN 251129Z 2512/2612 08006KT P6SM FEW009 OVC020
     FM251500 06004KT P6SM OVC015
     FM260000 VRB03KT 4SM BR OVC009=



000
FTUS41 KRNK 251129
TAFLWB
TAF
KLWB 251129Z 2512/2612 07004KT P6SM OVC022
     FM251800 20006KT P6SM OVC025
     FM260100 VRB03KT 4SM BR OVC008
     FM260500 VRB03KT 1SM BR OVC004=



000
FTUS41 KRNK 251129
TAFLYH
TAF
KLYH 251129Z 2512/2612 05006KT P6SM OVC018
     FM252100 04005KT P6SM OVC012
     FM260000 07003KT 3SM BR OVC008=



000
FTUS41 KRNK 251129
TAFBLF
TAF
KBLF 251129Z 2512/2612 16010G18KT P6SM OVC015
     FM251600 21012G22KT P6SM BKN025
     FM252300 22008KT P6SM OVC020
     FM260400 18006KT P6SM OVC008=



000
FTUS41 KRNK 251129
TAFROA
TAF
KROA 251129Z 2512/2612 12008KT P6SM OVC025
     FM251500 14004KT 6SM -RA SCT007 OVC015
     FM252100 13003KT P6SM OVC022
     FM260300 12003KT 3SM BR OVC009=



000
FTUS41 KRNK 251129
TAFLYH
TAF
KLYH 251129Z 2512/2612 05006KT P6SM OVC018
     FM252100 04005KT P6SM OVC012
     FM260000 07003KT 3SM BR OVC008=



000
FTUS41 KRNK 250945 AAA
TAFLWB
TAF AMD
KLWB 250945Z 2510/2606 07003KT P6SM OVC028
     FM251100 05003KT P6SM OVC012
     FM251500 VRB03KT P6SM OVC040
     FM251800 20006KT P6SM BKN050
     FM260000 VRB03KT 4SM BR OVC015=



000
FTUS41 KRNK 250945 AAA
TAFLWB
TAF AMD
KLWB 250945Z 2510/2606 07003KT P6SM OVC028
     FM251100 05003KT P6SM OVC012
     FM251500 VRB03KT P6SM OVC040
     FM251800 20006KT P6SM BKN050
     FM260000 VRB03KT 4SM BR OVC015=



000
FTUS41 KRNK 250944 AAA
TAFLYH
TAF AMD
KLYH 250944Z 2510/2606 05006KT P6SM OVC050
     FM251100 06006KT P6SM OVC025
     FM251300 06006KT P6SM SCT010 OVC018
     FM251900 15005KT P6SM BKN025
     FM260000 12004KT 4SM BR OVC012=



000
FTUS41 KRNK 250944 AAA
TAFLYH
TAF AMD
KLYH 250944Z 2510/2606 05006KT P6SM OVC050
     FM251100 06006KT P6SM OVC025
     FM251300 06006KT P6SM SCT010 OVC018
     FM251900 15005KT P6SM BKN025
     FM260000 12004KT 4SM BR OVC012=



000
FTUS41 KRNK 250944 AAA
TAFLYH
TAF AMD
KLYH 250944Z 2510/2606 05006KT P6SM OVC050
     FM251100 06006KT P6SM OVC025
     FM251300 06006KT P6SM SCT010 OVC018
     FM251900 15005KT P6SM BKN025
     FM260000 12004KT 4SM BR OVC012=



000
FTUS41 KRNK 250944 AAA
TAFBLF
TAF AMD
KBLF 250944Z 2510/2606 16008G18KT P6SM OVC015
     FM251600 21010G20KT P6SM BKN050
     FM252200 22008KT P6SM OVC040
     FM260100 16005KT P6SM OVC025=



000
FTUS41 KRNK 250944 AAA
TAFBLF
TAF AMD
KBLF 250944Z 2510/2606 16008G18KT P6SM OVC015
     FM251600 21010G20KT P6SM BKN050
     FM252200 22008KT P6SM OVC040
     FM260100 16005KT P6SM OVC025=



000
FTUS41 KRNK 250944 AAA
TAFBLF
TAF AMD
KBLF 250944Z 2510/2606 16008G18KT P6SM OVC015
     FM251600 21010G20KT P6SM BKN050
     FM252200 22008KT P6SM OVC040
     FM260100 16005KT P6SM OVC025=



000
FTUS41 KRNK 250747 AAA
TAFDAN
TAF AMD
KDAN 250747Z 2508/2606 06008KT P6SM BKN028 OVC070
     FM251100 05005KT P6SM FEW009 OVC020
     FM251900 06004KT P6SM BKN025
     FM260000 VRB03KT 4SM BR OVC012=



000
FTUS41 KRNK 250747 AAA
TAFDAN
TAF AMD
KDAN 250747Z 2508/2606 06008KT P6SM BKN028 OVC070
     FM251100 05005KT P6SM FEW009 OVC020
     FM251900 06004KT P6SM BKN025
     FM260000 VRB03KT 4SM BR OVC012=



000
FTUS41 KRNK 250747 AAA
TAFDAN
TAF AMD
KDAN 250747Z 2508/2606 06008KT P6SM BKN028 OVC070
     FM251100 05005KT P6SM FEW009 OVC020
     FM251900 06004KT P6SM BKN025
     FM260000 VRB03KT 4SM BR OVC012=



    US Dept of Commerce
    National Oceanic and Atmospheric Administration
    National Weather Service
    1325 East West Highway
    Silver Spring, MD 20910
    Page Author: NWS Internet Services Team
Disclaimer
Information Quality
Credits
Glossary
Privacy Policy
Freedom of Information Act (FOIA)
About Us
Career Opportunities